<?xml version="1.0" encoding="UTF-8" standalone="no" ?>
<gpx xmlns="http://www.topografix.com/GPX/1/1" xmlns:xsi="http://www.w3.org/2001/XMLSchema-instance" xsi:schemaLocation="http://www.topografix.com/GPX/1/1 http://www.topografix.com/GPX/1/1/gpx.xsd" version="1.1" creator="VisuGPX - https://www.visugpx.com">
  <metadata>
    <name>Tour de France 2019</name>
    <desc><![CDATA[4272km en 2 mois en tandem avec notre petit chien dans le panier avant]]></desc>
  </metadata>
  <trk>
    <name><![CDATA[Tracé 20190922-094848]]></name>
    <trkseg>
      <trkpt lat="49.28374" lon="5.28388">
        <ele>189.808</ele>
        <time>2019-09-22T08:01:55.000Z</time>
      </trkpt>
      <trkpt lat="49.28451" lon="5.28225">
        <ele>188.875</ele>
        <time>2019-09-22T08:05:49.000Z</time>
      </trkpt>
      <trkpt lat="49.28374" lon="5.2808">
        <ele>186.703</ele>
        <time>2019-09-22T08:06:19.000Z</time>
      </trkpt>
      <trkpt lat="49.28323" lon="5.27911">
        <ele>185.795</ele>
        <time>2019-09-22T08:06:49.000Z</time>
      </trkpt>
      <trkpt lat="49.28269" lon="5.27739">
        <ele>184.9</ele>
        <time>2019-09-22T08:07:19.000Z</time>
      </trkpt>
      <trkpt lat="49.28212" lon="5.27554">
        <ele>185.341</ele>
        <time>2019-09-22T08:07:49.000Z</time>
      </trkpt>
      <trkpt lat="49.28119" lon="5.27565">
        <ele>186.287</ele>
        <time>2019-09-22T08:08:19.000Z</time>
      </trkpt>
      <trkpt lat="49.28013" lon="5.27661">
        <ele>185.165</ele>
        <time>2019-09-22T08:08:49.000Z</time>
      </trkpt>
      <trkpt lat="49.27908" lon="5.27741">
        <ele>191</ele>
        <time>2019-09-22T08:09:19.000Z</time>
      </trkpt>
      <trkpt lat="49.27787" lon="5.2783">
        <ele>191.48</ele>
        <time>2019-09-22T08:09:49.000Z</time>
      </trkpt>
      <trkpt lat="49.27655" lon="5.27938">
        <ele>191.506</ele>
        <time>2019-09-22T08:10:19.000Z</time>
      </trkpt>
      <trkpt lat="49.27496" lon="5.28053">
        <ele>186.897</ele>
        <time>2019-09-22T08:10:49.000Z</time>
      </trkpt>
      <trkpt lat="49.27363" lon="5.28182">
        <ele>184.562</ele>
        <time>2019-09-22T08:11:19.000Z</time>
      </trkpt>
      <trkpt lat="49.27235" lon="5.28305">
        <ele>184.273</ele>
        <time>2019-09-22T08:11:49.000Z</time>
      </trkpt>
      <trkpt lat="49.2711" lon="5.28426">
        <ele>184.591</ele>
        <time>2019-09-22T08:12:19.000Z</time>
      </trkpt>
      <trkpt lat="49.27015" lon="5.28556">
        <ele>187.483</ele>
        <time>2019-09-22T08:12:49.000Z</time>
      </trkpt>
      <trkpt lat="49.2693" lon="5.28672">
        <ele>189.504</ele>
        <time>2019-09-22T08:13:19.000Z</time>
      </trkpt>
      <trkpt lat="49.26851" lon="5.28788">
        <ele>192.408</ele>
        <time>2019-09-22T08:13:49.000Z</time>
      </trkpt>
      <trkpt lat="49.26762" lon="5.289">
        <ele>190.959</ele>
        <time>2019-09-22T08:14:19.000Z</time>
      </trkpt>
      <trkpt lat="49.26668" lon="5.29007">
        <ele>192.361</ele>
        <time>2019-09-22T08:14:49.000Z</time>
      </trkpt>
      <trkpt lat="49.26564" lon="5.29074">
        <ele>193.518</ele>
        <time>2019-09-22T08:15:19.000Z</time>
      </trkpt>
      <trkpt lat="49.26442" lon="5.29072">
        <ele>196.666</ele>
        <time>2019-09-22T08:15:49.000Z</time>
      </trkpt>
      <trkpt lat="49.26332" lon="5.29083">
        <ele>192.791</ele>
        <time>2019-09-22T08:18:10.000Z</time>
      </trkpt>
      <trkpt lat="49.26182" lon="5.29143">
        <ele>191.39</ele>
        <time>2019-09-22T08:18:40.000Z</time>
      </trkpt>
      <trkpt lat="49.26053" lon="5.29164">
        <ele>188.561</ele>
        <time>2019-09-22T08:19:10.000Z</time>
      </trkpt>
      <trkpt lat="49.25932" lon="5.29087">
        <ele>187.065</ele>
        <time>2019-09-22T08:19:40.000Z</time>
      </trkpt>
      <trkpt lat="49.25983" lon="5.29249">
        <ele>184.894</ele>
        <time>2019-09-22T08:20:10.000Z</time>
      </trkpt>
      <trkpt lat="49.26071" lon="5.29429">
        <ele>189.183</ele>
        <time>2019-09-22T08:20:40.000Z</time>
      </trkpt>
      <trkpt lat="49.26146" lon="5.29621">
        <ele>186.487</ele>
        <time>2019-09-22T08:21:10.000Z</time>
      </trkpt>
      <trkpt lat="49.26196" lon="5.29834">
        <ele>186.355</ele>
        <time>2019-09-22T08:21:40.000Z</time>
      </trkpt>
      <trkpt lat="49.26244" lon="5.30054">
        <ele>185.066</ele>
        <time>2019-09-22T08:22:10.000Z</time>
      </trkpt>
      <trkpt lat="49.26226" lon="5.30258">
        <ele>185.16</ele>
        <time>2019-09-22T08:22:40.000Z</time>
      </trkpt>
      <trkpt lat="49.26129" lon="5.30395">
        <ele>183.91</ele>
        <time>2019-09-22T08:23:10.000Z</time>
      </trkpt>
      <trkpt lat="49.26051" lon="5.30559">
        <ele>183.682</ele>
        <time>2019-09-22T08:23:40.000Z</time>
      </trkpt>
      <trkpt lat="49.25997" lon="5.30749">
        <ele>181.98</ele>
        <time>2019-09-22T08:24:10.000Z</time>
      </trkpt>
      <trkpt lat="49.25954" lon="5.30948">
        <ele>183.822</ele>
        <time>2019-09-22T08:24:40.000Z</time>
      </trkpt>
      <trkpt lat="49.25926" lon="5.31155">
        <ele>184.199</ele>
        <time>2019-09-22T08:25:10.000Z</time>
      </trkpt>
      <trkpt lat="49.25895" lon="5.31355">
        <ele>183.892</ele>
        <time>2019-09-22T08:25:40.000Z</time>
      </trkpt>
      <trkpt lat="49.25855" lon="5.31554">
        <ele>184.932</ele>
        <time>2019-09-22T08:26:10.000Z</time>
      </trkpt>
      <trkpt lat="49.25818" lon="5.31752">
        <ele>183.907</ele>
        <time>2019-09-22T08:26:40.000Z</time>
      </trkpt>
      <trkpt lat="49.25797" lon="5.31939">
        <ele>183.549</ele>
        <time>2019-09-22T08:27:10.000Z</time>
      </trkpt>
      <trkpt lat="49.25772" lon="5.32143">
        <ele>182.688</ele>
        <time>2019-09-22T08:27:40.000Z</time>
      </trkpt>
      <trkpt lat="49.25695" lon="5.32313">
        <ele>184.406</ele>
        <time>2019-09-22T08:28:10.000Z</time>
      </trkpt>
      <trkpt lat="49.25592" lon="5.32448">
        <ele>183.86</ele>
        <time>2019-09-22T08:28:40.000Z</time>
      </trkpt>
      <trkpt lat="49.25481" lon="5.32541">
        <ele>187.097</ele>
        <time>2019-09-22T08:29:10.000Z</time>
      </trkpt>
      <trkpt lat="49.25381" lon="5.32591">
        <ele>191.672</ele>
        <time>2019-09-22T08:29:40.000Z</time>
      </trkpt>
      <trkpt lat="49.25345" lon="5.32783">
        <ele>189.758</ele>
        <time>2019-09-22T08:30:10.000Z</time>
      </trkpt>
      <trkpt lat="49.25285" lon="5.32983">
        <ele>183.756</ele>
        <time>2019-09-22T08:30:40.000Z</time>
      </trkpt>
      <trkpt lat="49.25238" lon="5.33137">
        <ele>187.818</ele>
        <time>2019-09-22T08:31:10.000Z</time>
      </trkpt>
      <trkpt lat="49.25312" lon="5.33358">
        <ele>184.658</ele>
        <time>2019-09-22T08:31:40.000Z</time>
      </trkpt>
      <trkpt lat="49.25359" lon="5.33542">
        <ele>185.179</ele>
        <time>2019-09-22T08:32:10.000Z</time>
      </trkpt>
      <trkpt lat="49.25295" lon="5.33645">
        <ele>187.472</ele>
        <time>2019-09-22T08:32:40.000Z</time>
      </trkpt>
      <trkpt lat="49.25184" lon="5.3374">
        <ele>187.426</ele>
        <time>2019-09-22T08:33:10.000Z</time>
      </trkpt>
      <trkpt lat="49.25068" lon="5.33794">
        <ele>193.11</ele>
        <time>2019-09-22T08:33:40.000Z</time>
      </trkpt>
      <trkpt lat="49.24934" lon="5.3381">
        <ele>191.213</ele>
        <time>2019-09-22T08:34:10.000Z</time>
      </trkpt>
      <trkpt lat="49.24806" lon="5.33802">
        <ele>187.49</ele>
        <time>2019-09-22T08:34:40.000Z</time>
      </trkpt>
      <trkpt lat="49.24677" lon="5.33778">
        <ele>187.508</ele>
        <time>2019-09-22T08:35:10.000Z</time>
      </trkpt>
      <trkpt lat="49.2456" lon="5.33695">
        <ele>188.294</ele>
        <time>2019-09-22T08:35:40.000Z</time>
      </trkpt>
      <trkpt lat="49.24461" lon="5.33573">
        <ele>189.593</ele>
        <time>2019-09-22T08:36:10.000Z</time>
      </trkpt>
      <trkpt lat="49.24357" lon="5.3344">
        <ele>187.423</ele>
        <time>2019-09-22T08:36:40.000Z</time>
      </trkpt>
      <trkpt lat="49.24258" lon="5.33312">
        <ele>185.062</ele>
        <time>2019-09-22T08:37:10.000Z</time>
      </trkpt>
      <trkpt lat="49.24169" lon="5.33164">
        <ele>184.835</ele>
        <time>2019-09-22T08:37:40.000Z</time>
      </trkpt>
      <trkpt lat="49.24081" lon="5.33014">
        <ele>185.066</ele>
        <time>2019-09-22T08:38:10.000Z</time>
      </trkpt>
      <trkpt lat="49.23994" lon="5.32864">
        <ele>186.563</ele>
        <time>2019-09-22T08:38:40.000Z</time>
      </trkpt>
      <trkpt lat="49.23898" lon="5.32701">
        <ele>186.607</ele>
        <time>2019-09-22T08:39:13.000Z</time>
      </trkpt>
      <trkpt lat="49.2381" lon="5.32561">
        <ele>188.149</ele>
        <time>2019-09-22T08:39:43.000Z</time>
      </trkpt>
      <trkpt lat="49.23723" lon="5.32399">
        <ele>189.502</ele>
        <time>2019-09-22T08:40:13.000Z</time>
      </trkpt>
      <trkpt lat="49.23638" lon="5.32248">
        <ele>187.072</ele>
        <time>2019-09-22T08:40:43.000Z</time>
      </trkpt>
      <trkpt lat="49.23549" lon="5.32095">
        <ele>186.79</ele>
        <time>2019-09-22T08:41:13.000Z</time>
      </trkpt>
      <trkpt lat="49.23485" lon="5.31904">
        <ele>184.255</ele>
        <time>2019-09-22T08:41:43.000Z</time>
      </trkpt>
      <trkpt lat="49.23468" lon="5.31696">
        <ele>185.635</ele>
        <time>2019-09-22T08:42:13.000Z</time>
      </trkpt>
      <trkpt lat="49.23455" lon="5.31482">
        <ele>187.318</ele>
        <time>2019-09-22T08:42:43.000Z</time>
      </trkpt>
      <trkpt lat="49.23444" lon="5.31287">
        <ele>186.571</ele>
        <time>2019-09-22T08:43:13.000Z</time>
      </trkpt>
      <trkpt lat="49.23412" lon="5.3108">
        <ele>186.1</ele>
        <time>2019-09-22T08:43:43.000Z</time>
      </trkpt>
      <trkpt lat="49.23361" lon="5.30895">
        <ele>187.256</ele>
        <time>2019-09-22T08:44:13.000Z</time>
      </trkpt>
      <trkpt lat="49.23308" lon="5.30707">
        <ele>187.704</ele>
        <time>2019-09-22T08:44:43.000Z</time>
      </trkpt>
      <trkpt lat="49.23254" lon="5.30512">
        <ele>187.892</ele>
        <time>2019-09-22T08:45:13.000Z</time>
      </trkpt>
      <trkpt lat="49.23205" lon="5.30338">
        <ele>186.786</ele>
        <time>2019-09-22T08:45:43.000Z</time>
      </trkpt>
      <trkpt lat="49.23168" lon="5.30233">
        <ele>188.673</ele>
        <time>2019-09-22T08:46:13.000Z</time>
      </trkpt>
      <trkpt lat="49.23129" lon="5.30075">
        <ele>194.054</ele>
        <time>2019-09-22T08:46:43.000Z</time>
      </trkpt>
      <trkpt lat="49.23061" lon="5.29899">
        <ele>190.015</ele>
        <time>2019-09-22T08:47:13.000Z</time>
      </trkpt>
      <trkpt lat="49.22941" lon="5.29788">
        <ele>191.855</ele>
        <time>2019-09-22T08:47:43.000Z</time>
      </trkpt>
      <trkpt lat="49.22795" lon="5.29738">
        <ele>189.678</ele>
        <time>2019-09-22T08:48:13.000Z</time>
      </trkpt>
      <trkpt lat="49.2265" lon="5.29726">
        <ele>190.516</ele>
        <time>2019-09-22T08:48:43.000Z</time>
      </trkpt>
      <trkpt lat="49.22509" lon="5.29757">
        <ele>192.655</ele>
        <time>2019-09-22T08:49:13.000Z</time>
      </trkpt>
      <trkpt lat="49.22377" lon="5.29861">
        <ele>192.172</ele>
        <time>2019-09-22T08:49:43.000Z</time>
      </trkpt>
      <trkpt lat="49.22289" lon="5.30012">
        <ele>190.902</ele>
        <time>2019-09-22T08:50:13.000Z</time>
      </trkpt>
      <trkpt lat="49.22242" lon="5.30198">
        <ele>192.989</ele>
        <time>2019-09-22T08:50:43.000Z</time>
      </trkpt>
      <trkpt lat="49.22201" lon="5.30409">
        <ele>197.245</ele>
        <time>2019-09-22T08:51:13.000Z</time>
      </trkpt>
      <trkpt lat="49.22182" lon="5.30617">
        <ele>193.713</ele>
        <time>2019-09-22T08:51:43.000Z</time>
      </trkpt>
      <trkpt lat="49.22182" lon="5.30828">
        <ele>187.077</ele>
        <time>2019-09-22T08:52:13.000Z</time>
      </trkpt>
      <trkpt lat="49.22192" lon="5.31044">
        <ele>190.118</ele>
        <time>2019-09-22T08:52:43.000Z</time>
      </trkpt>
      <trkpt lat="49.22211" lon="5.31241">
        <ele>193.925</ele>
        <time>2019-09-22T08:53:13.000Z</time>
      </trkpt>
      <trkpt lat="49.22231" lon="5.31465">
        <ele>195.746</ele>
        <time>2019-09-22T08:53:43.000Z</time>
      </trkpt>
      <trkpt lat="49.22254" lon="5.31671">
        <ele>195.45</ele>
        <time>2019-09-22T08:54:13.000Z</time>
      </trkpt>
      <trkpt lat="49.22277" lon="5.31881">
        <ele>192.664</ele>
        <time>2019-09-22T08:54:43.000Z</time>
      </trkpt>
      <trkpt lat="49.22298" lon="5.32086">
        <ele>191.38</ele>
        <time>2019-09-22T08:55:13.000Z</time>
      </trkpt>
      <trkpt lat="49.2232" lon="5.32291">
        <ele>195.027</ele>
        <time>2019-09-22T08:55:43.000Z</time>
      </trkpt>
      <trkpt lat="49.22355" lon="5.32493">
        <ele>192.524</ele>
        <time>2019-09-22T08:56:13.000Z</time>
      </trkpt>
      <trkpt lat="49.22392" lon="5.32686">
        <ele>193.071</ele>
        <time>2019-09-22T08:56:43.000Z</time>
      </trkpt>
      <trkpt lat="49.22429" lon="5.32888">
        <ele>195.679</ele>
        <time>2019-09-22T08:57:13.000Z</time>
      </trkpt>
      <trkpt lat="49.22463" lon="5.33087">
        <ele>196.082</ele>
        <time>2019-09-22T08:57:43.000Z</time>
      </trkpt>
      <trkpt lat="49.22484" lon="5.33292">
        <ele>192.254</ele>
        <time>2019-09-22T08:58:13.000Z</time>
      </trkpt>
      <trkpt lat="49.22498" lon="5.33503">
        <ele>193.486</ele>
        <time>2019-09-22T08:58:43.000Z</time>
      </trkpt>
      <trkpt lat="49.22515" lon="5.33708">
        <ele>191.87</ele>
        <time>2019-09-22T08:59:13.000Z</time>
      </trkpt>
      <trkpt lat="49.22529" lon="5.3391">
        <ele>192.159</ele>
        <time>2019-09-22T08:59:43.000Z</time>
      </trkpt>
      <trkpt lat="49.22539" lon="5.34118">
        <ele>195.912</ele>
        <time>2019-09-22T09:00:13.000Z</time>
      </trkpt>
      <trkpt lat="49.22524" lon="5.34323">
        <ele>194.399</ele>
        <time>2019-09-22T09:00:43.000Z</time>
      </trkpt>
      <trkpt lat="49.22498" lon="5.34524">
        <ele>194.057</ele>
        <time>2019-09-22T09:01:13.000Z</time>
      </trkpt>
      <trkpt lat="49.22471" lon="5.34723">
        <ele>196.993</ele>
        <time>2019-09-22T09:01:43.000Z</time>
      </trkpt>
      <trkpt lat="49.22443" lon="5.3492">
        <ele>197.286</ele>
        <time>2019-09-22T09:02:13.000Z</time>
      </trkpt>
      <trkpt lat="49.22388" lon="5.35111">
        <ele>197.277</ele>
        <time>2019-09-22T09:02:43.000Z</time>
      </trkpt>
      <trkpt lat="49.22304" lon="5.3528">
        <ele>193.954</ele>
        <time>2019-09-22T09:03:13.000Z</time>
      </trkpt>
      <trkpt lat="49.22194" lon="5.35418">
        <ele>193.268</ele>
        <time>2019-09-22T09:03:43.000Z</time>
      </trkpt>
      <trkpt lat="49.22091" lon="5.35532">
        <ele>195.536</ele>
        <time>2019-09-22T09:04:13.000Z</time>
      </trkpt>
      <trkpt lat="49.22018" lon="5.35695">
        <ele>194.475</ele>
        <time>2019-09-22T09:04:43.000Z</time>
      </trkpt>
      <trkpt lat="49.22071" lon="5.35771">
        <ele>193.962</ele>
        <time>2019-09-22T09:05:13.000Z</time>
      </trkpt>
      <trkpt lat="49.22056" lon="5.3578">
        <ele>194.848</ele>
        <time>2019-09-22T09:16:52.000Z</time>
      </trkpt>
      <trkpt lat="49.22036" lon="5.35987">
        <ele>189.269</ele>
        <time>2019-09-22T09:17:22.000Z</time>
      </trkpt>
      <trkpt lat="49.22081" lon="5.36177">
        <ele>190.622</ele>
        <time>2019-09-22T09:17:52.000Z</time>
      </trkpt>
      <trkpt lat="49.22065" lon="5.364">
        <ele>187.866</ele>
        <time>2019-09-22T09:18:22.000Z</time>
      </trkpt>
      <trkpt lat="49.21976" lon="5.36561">
        <ele>194.265</ele>
        <time>2019-09-22T09:18:52.000Z</time>
      </trkpt>
      <trkpt lat="49.21865" lon="5.36685">
        <ele>198.449</ele>
        <time>2019-09-22T09:19:22.000Z</time>
      </trkpt>
      <trkpt lat="49.21737" lon="5.36772">
        <ele>202.676</ele>
        <time>2019-09-22T09:19:52.000Z</time>
      </trkpt>
      <trkpt lat="49.21601" lon="5.36859">
        <ele>203.326</ele>
        <time>2019-09-22T09:20:22.000Z</time>
      </trkpt>
      <trkpt lat="49.21461" lon="5.36946">
        <ele>200.116</ele>
        <time>2019-09-22T09:20:52.000Z</time>
      </trkpt>
      <trkpt lat="49.21316" lon="5.37035">
        <ele>194.602</ele>
        <time>2019-09-22T09:21:22.000Z</time>
      </trkpt>
      <trkpt lat="49.21174" lon="5.37108">
        <ele>194.673</ele>
        <time>2019-09-22T09:21:52.001Z</time>
      </trkpt>
      <trkpt lat="49.21027" lon="5.3719">
        <ele>196.095</ele>
        <time>2019-09-22T09:22:22.001Z</time>
      </trkpt>
      <trkpt lat="49.20881" lon="5.37272">
        <ele>195.364</ele>
        <time>2019-09-22T09:22:52.001Z</time>
      </trkpt>
      <trkpt lat="49.20761" lon="5.37339">
        <ele>195.778</ele>
        <time>2019-09-22T09:23:22.001Z</time>
      </trkpt>
      <trkpt lat="49.20694" lon="5.37345">
        <ele>200.947</ele>
        <time>2019-09-22T09:23:52.001Z</time>
      </trkpt>
      <trkpt lat="49.20555" lon="5.37363">
        <ele>203.291</ele>
        <time>2019-09-22T09:24:22.001Z</time>
      </trkpt>
      <trkpt lat="49.20404" lon="5.37309">
        <ele>198.453</ele>
        <time>2019-09-22T09:24:52.001Z</time>
      </trkpt>
      <trkpt lat="49.20254" lon="5.37255">
        <ele>195.707</ele>
        <time>2019-09-22T09:25:22.001Z</time>
      </trkpt>
      <trkpt lat="49.20101" lon="5.37198">
        <ele>196.126</ele>
        <time>2019-09-22T09:25:52.001Z</time>
      </trkpt>
      <trkpt lat="49.1996" lon="5.37145">
        <ele>196.818</ele>
        <time>2019-09-22T09:26:22.001Z</time>
      </trkpt>
      <trkpt lat="49.19818" lon="5.37093">
        <ele>196.535</ele>
        <time>2019-09-22T09:26:52.001Z</time>
      </trkpt>
      <trkpt lat="49.19677" lon="5.37036">
        <ele>196.894</ele>
        <time>2019-09-22T09:27:22.001Z</time>
      </trkpt>
      <trkpt lat="49.19533" lon="5.36985">
        <ele>201.292</ele>
        <time>2019-09-22T09:27:52.001Z</time>
      </trkpt>
      <trkpt lat="49.19421" lon="5.36864">
        <ele>206.018</ele>
        <time>2019-09-22T09:28:22.001Z</time>
      </trkpt>
      <trkpt lat="49.19299" lon="5.36638">
        <ele>193.337</ele>
        <time>2019-09-22T09:28:52.001Z</time>
      </trkpt>
      <trkpt lat="49.19198" lon="5.36439">
        <ele>192.912</ele>
        <time>2019-09-22T09:29:22.001Z</time>
      </trkpt>
      <trkpt lat="49.19103" lon="5.36254">
        <ele>191.145</ele>
        <time>2019-09-22T09:29:52.001Z</time>
      </trkpt>
      <trkpt lat="49.19011" lon="5.36074">
        <ele>195.365</ele>
        <time>2019-09-22T09:30:22.001Z</time>
      </trkpt>
      <trkpt lat="49.18913" lon="5.35886">
        <ele>193.753</ele>
        <time>2019-09-22T09:30:52.001Z</time>
      </trkpt>
      <trkpt lat="49.18802" lon="5.35705">
        <ele>192.856</ele>
        <time>2019-09-22T09:31:22.001Z</time>
      </trkpt>
      <trkpt lat="49.18688" lon="5.3559">
        <ele>195.874</ele>
        <time>2019-09-22T09:31:52.001Z</time>
      </trkpt>
      <trkpt lat="49.18543" lon="5.355">
        <ele>196.393</ele>
        <time>2019-09-22T09:32:22.001Z</time>
      </trkpt>
      <trkpt lat="49.18397" lon="5.35467">
        <ele>195.601</ele>
        <time>2019-09-22T09:32:52.001Z</time>
      </trkpt>
      <trkpt lat="49.1824" lon="5.3544">
        <ele>193.891</ele>
        <time>2019-09-22T09:33:22.001Z</time>
      </trkpt>
      <trkpt lat="49.18092" lon="5.35477">
        <ele>198.035</ele>
        <time>2019-09-22T09:33:52.001Z</time>
      </trkpt>
      <trkpt lat="49.17957" lon="5.35619">
        <ele>195.924</ele>
        <time>2019-09-22T09:34:22.001Z</time>
      </trkpt>
      <trkpt lat="49.17887" lon="5.35821">
        <ele>193.587</ele>
        <time>2019-09-22T09:34:52.001Z</time>
      </trkpt>
      <trkpt lat="49.17859" lon="5.36026">
        <ele>199.075</ele>
        <time>2019-09-22T09:35:22.001Z</time>
      </trkpt>
      <trkpt lat="49.17837" lon="5.36227">
        <ele>203.069</ele>
        <time>2019-09-22T09:35:52.001Z</time>
      </trkpt>
      <trkpt lat="49.17802" lon="5.3646">
        <ele>203.477</ele>
        <time>2019-09-22T09:36:22.001Z</time>
      </trkpt>
      <trkpt lat="49.1777" lon="5.36699">
        <ele>199.198</ele>
        <time>2019-09-22T09:36:52.001Z</time>
      </trkpt>
      <trkpt lat="49.17742" lon="5.36924">
        <ele>196.103</ele>
        <time>2019-09-22T09:37:22.001Z</time>
      </trkpt>
      <trkpt lat="49.17699" lon="5.37153">
        <ele>196.569</ele>
        <time>2019-09-22T09:37:52.001Z</time>
      </trkpt>
      <trkpt lat="49.17657" lon="5.3738">
        <ele>199.92</ele>
        <time>2019-09-22T09:38:22.001Z</time>
      </trkpt>
      <trkpt lat="49.17636" lon="5.37609">
        <ele>195.394</ele>
        <time>2019-09-22T09:38:52.001Z</time>
      </trkpt>
      <trkpt lat="49.17583" lon="5.37812">
        <ele>195.037</ele>
        <time>2019-09-22T09:39:22.001Z</time>
      </trkpt>
      <trkpt lat="49.17436" lon="5.37874">
        <ele>200.389</ele>
        <time>2019-09-22T09:39:52.001Z</time>
      </trkpt>
      <trkpt lat="49.17306" lon="5.37941">
        <ele>199.233</ele>
        <time>2019-09-22T09:40:22.001Z</time>
      </trkpt>
      <trkpt lat="49.17284" lon="5.3806">
        <ele>199.841</ele>
        <time>2019-09-22T09:40:52.001Z</time>
      </trkpt>
      <trkpt lat="49.17209" lon="5.3828">
        <ele>201.613</ele>
        <time>2019-09-22T09:41:22.001Z</time>
      </trkpt>
      <trkpt lat="49.17105" lon="5.38434">
        <ele>197.747</ele>
        <time>2019-09-22T09:41:52.001Z</time>
      </trkpt>
      <trkpt lat="49.16983" lon="5.38558">
        <ele>198.066</ele>
        <time>2019-09-22T09:42:22.001Z</time>
      </trkpt>
      <trkpt lat="49.16844" lon="5.38637">
        <ele>198.147</ele>
        <time>2019-09-22T09:42:52.001Z</time>
      </trkpt>
      <trkpt lat="49.16688" lon="5.38683">
        <ele>199.488</ele>
        <time>2019-09-22T09:43:22.001Z</time>
      </trkpt>
      <trkpt lat="49.16538" lon="5.38739">
        <ele>200.101</ele>
        <time>2019-09-22T09:43:52.001Z</time>
      </trkpt>
      <trkpt lat="49.16428" lon="5.38757">
        <ele>196.823</ele>
        <time>2019-09-22T09:44:22.001Z</time>
      </trkpt>
      <trkpt lat="49.16361" lon="5.38755">
        <ele>194.596</ele>
        <time>2019-09-22T09:44:55.001Z</time>
      </trkpt>
      <trkpt lat="49.16281" lon="5.38745">
        <ele>204.841</ele>
        <time>2019-09-22T09:45:25.001Z</time>
      </trkpt>
      <trkpt lat="49.16208" lon="5.38738">
        <ele>196.38</ele>
        <time>2019-09-22T09:45:58.001Z</time>
      </trkpt>
      <trkpt lat="49.16147" lon="5.38743">
        <ele>196.605</ele>
        <time>2019-09-22T09:48:07.001Z</time>
      </trkpt>
      <trkpt lat="49.16052" lon="5.38678">
        <ele>205.932</ele>
        <time>2019-09-22T09:48:37.001Z</time>
      </trkpt>
      <trkpt lat="49.15969" lon="5.38599">
        <ele>208.927</ele>
        <time>2019-09-22T09:49:07.001Z</time>
      </trkpt>
      <trkpt lat="49.15939" lon="5.38563">
        <ele>201.573</ele>
        <time>2019-09-22T09:52:40.001Z</time>
      </trkpt>
      <trkpt lat="49.16009" lon="5.3863">
        <ele>201.953</ele>
        <time>2019-09-22T09:53:13.001Z</time>
      </trkpt>
      <trkpt lat="49.1604" lon="5.3866">
        <ele>198.623</ele>
        <time>2019-09-22T09:54:07.001Z</time>
      </trkpt>
      <trkpt lat="49.15972" lon="5.38596">
        <ele>197.211</ele>
        <time>2019-09-22T09:54:40.001Z</time>
      </trkpt>
      <trkpt lat="49.15893" lon="5.38514">
        <ele>199.949</ele>
        <time>2019-09-22T09:55:10.001Z</time>
      </trkpt>
      <trkpt lat="49.15802" lon="5.38615">
        <ele>203.211</ele>
        <time>2019-09-22T09:55:40.001Z</time>
      </trkpt>
      <trkpt lat="49.15679" lon="5.38643">
        <ele>202.479</ele>
        <time>2019-09-22T09:56:10.001Z</time>
      </trkpt>
      <trkpt lat="49.15574" lon="5.38546">
        <ele>208.306</ele>
        <time>2019-09-22T09:56:40.001Z</time>
      </trkpt>
      <trkpt lat="49.15452" lon="5.38481">
        <ele>196.987</ele>
        <time>2019-09-22T09:57:10.001Z</time>
      </trkpt>
      <trkpt lat="49.1536" lon="5.38405">
        <ele>197.048</ele>
        <time>2019-09-22T09:57:40.001Z</time>
      </trkpt>
      <trkpt lat="49.15323" lon="5.38382">
        <ele>194.069</ele>
        <time>2019-09-22T09:59:13.001Z</time>
      </trkpt>
      <trkpt lat="49.15316" lon="5.38372">
        <ele>190.024</ele>
        <time>2019-09-22T10:00:46.001Z</time>
      </trkpt>
      <trkpt lat="49.15237" lon="5.38328">
        <ele>196.224</ele>
        <time>2019-09-22T10:01:19.001Z</time>
      </trkpt>
      <trkpt lat="49.15157" lon="5.38155">
        <ele>201.74</ele>
        <time>2019-09-22T10:01:52.001Z</time>
      </trkpt>
      <trkpt lat="49.15096" lon="5.37955">
        <ele>199.213</ele>
        <time>2019-09-22T10:02:22.001Z</time>
      </trkpt>
      <trkpt lat="49.1503" lon="5.37779">
        <ele>198.147</ele>
        <time>2019-09-22T10:02:52.001Z</time>
      </trkpt>
      <trkpt lat="49.14946" lon="5.37628">
        <ele>197.355</ele>
        <time>2019-09-22T10:03:22.001Z</time>
      </trkpt>
      <trkpt lat="49.14828" lon="5.37642">
        <ele>192.819</ele>
        <time>2019-09-22T10:03:52.001Z</time>
      </trkpt>
      <trkpt lat="49.14717" lon="5.3769">
        <ele>196.693</ele>
        <time>2019-09-22T10:04:22.001Z</time>
      </trkpt>
      <trkpt lat="49.14589" lon="5.37737">
        <ele>196.349</ele>
        <time>2019-09-22T10:04:52.001Z</time>
      </trkpt>
      <trkpt lat="49.14465" lon="5.37823">
        <ele>196.743</ele>
        <time>2019-09-22T10:05:22.001Z</time>
      </trkpt>
      <trkpt lat="49.14348" lon="5.37898">
        <ele>195.545</ele>
        <time>2019-09-22T10:05:52.001Z</time>
      </trkpt>
      <trkpt lat="49.14221" lon="5.37946">
        <ele>195.799</ele>
        <time>2019-09-22T10:06:22.001Z</time>
      </trkpt>
      <trkpt lat="49.14134" lon="5.38085">
        <ele>198.332</ele>
        <time>2019-09-22T10:06:52.001Z</time>
      </trkpt>
      <trkpt lat="49.14083" lon="5.3827">
        <ele>196.495</ele>
        <time>2019-09-22T10:07:22.001Z</time>
      </trkpt>
      <trkpt lat="49.14046" lon="5.38468">
        <ele>198.61</ele>
        <time>2019-09-22T10:07:52.001Z</time>
      </trkpt>
      <trkpt lat="49.1402" lon="5.38666">
        <ele>200.555</ele>
        <time>2019-09-22T10:08:22.001Z</time>
      </trkpt>
      <trkpt lat="49.14012" lon="5.38861">
        <ele>202.16</ele>
        <time>2019-09-22T10:08:52.001Z</time>
      </trkpt>
      <trkpt lat="49.14022" lon="5.39075">
        <ele>199.479</ele>
        <time>2019-09-22T10:09:22.001Z</time>
      </trkpt>
      <trkpt lat="49.1403" lon="5.3927">
        <ele>203.914</ele>
        <time>2019-09-22T10:09:52.001Z</time>
      </trkpt>
      <trkpt lat="49.14038" lon="5.39473">
        <ele>203.882</ele>
        <time>2019-09-22T10:10:22.001Z</time>
      </trkpt>
      <trkpt lat="49.14046" lon="5.39673">
        <ele>201.523</ele>
        <time>2019-09-22T10:10:52.001Z</time>
      </trkpt>
      <trkpt lat="49.14043" lon="5.39835">
        <ele>200.506</ele>
        <time>2019-09-22T10:11:22.001Z</time>
      </trkpt>
      <trkpt lat="49.14007" lon="5.39844">
        <ele>198.968</ele>
        <time>2019-09-22T10:15:01.001Z</time>
      </trkpt>
      <trkpt lat="49.13872" lon="5.39892">
        <ele>195.85</ele>
        <time>2019-09-22T10:15:31.001Z</time>
      </trkpt>
      <trkpt lat="49.13723" lon="5.3995">
        <ele>193.114</ele>
        <time>2019-09-22T10:16:01.001Z</time>
      </trkpt>
      <trkpt lat="49.13586" lon="5.40004">
        <ele>189.679</ele>
        <time>2019-09-22T10:16:31.001Z</time>
      </trkpt>
      <trkpt lat="49.13427" lon="5.40035">
        <ele>194.299</ele>
        <time>2019-09-22T10:17:01.001Z</time>
      </trkpt>
      <trkpt lat="49.13299" lon="5.40023">
        <ele>196.217</ele>
        <time>2019-09-22T10:17:31.001Z</time>
      </trkpt>
      <trkpt lat="49.13163" lon="5.40029">
        <ele>199.67</ele>
        <time>2019-09-22T10:18:01.001Z</time>
      </trkpt>
      <trkpt lat="49.13052" lon="5.40019">
        <ele>198.918</ele>
        <time>2019-09-22T10:18:31.001Z</time>
      </trkpt>
      <trkpt lat="49.12953" lon="5.40011">
        <ele>203.624</ele>
        <time>2019-09-22T10:19:01.001Z</time>
      </trkpt>
      <trkpt lat="49.12866" lon="5.40001">
        <ele>208.335</ele>
        <time>2019-09-22T10:19:31.001Z</time>
      </trkpt>
      <trkpt lat="49.1278" lon="5.39999">
        <ele>208.963</ele>
        <time>2019-09-22T10:20:01.001Z</time>
      </trkpt>
      <trkpt lat="49.12704" lon="5.39989">
        <ele>213.599</ele>
        <time>2019-09-22T10:20:31.001Z</time>
      </trkpt>
      <trkpt lat="49.12636" lon="5.39962">
        <ele>216.714</ele>
        <time>2019-09-22T10:21:01.001Z</time>
      </trkpt>
      <trkpt lat="49.12571" lon="5.39914">
        <ele>218.492</ele>
        <time>2019-09-22T10:21:31.001Z</time>
      </trkpt>
      <trkpt lat="49.12504" lon="5.39839">
        <ele>220.902</ele>
        <time>2019-09-22T10:22:01.001Z</time>
      </trkpt>
      <trkpt lat="49.12441" lon="5.39765">
        <ele>223.047</ele>
        <time>2019-09-22T10:22:31.001Z</time>
      </trkpt>
      <trkpt lat="49.12381" lon="5.39681">
        <ele>223.032</ele>
        <time>2019-09-22T10:23:01.001Z</time>
      </trkpt>
      <trkpt lat="49.12326" lon="5.39576">
        <ele>224.618</ele>
        <time>2019-09-22T10:23:31.001Z</time>
      </trkpt>
      <trkpt lat="49.12261" lon="5.39454">
        <ele>226.201</ele>
        <time>2019-09-22T10:24:01.001Z</time>
      </trkpt>
      <trkpt lat="49.12181" lon="5.39328">
        <ele>229.022</ele>
        <time>2019-09-22T10:24:31.001Z</time>
      </trkpt>
      <trkpt lat="49.12102" lon="5.39202">
        <ele>225.092</ele>
        <time>2019-09-22T10:25:01.001Z</time>
      </trkpt>
      <trkpt lat="49.1205" lon="5.39059">
        <ele>226.417</ele>
        <time>2019-09-22T10:25:31.001Z</time>
      </trkpt>
      <trkpt lat="49.12002" lon="5.38853">
        <ele>228.822</ele>
        <time>2019-09-22T10:26:01.001Z</time>
      </trkpt>
      <trkpt lat="49.11968" lon="5.38695">
        <ele>228.947</ele>
        <time>2019-09-22T10:26:31.001Z</time>
      </trkpt>
      <trkpt lat="49.11927" lon="5.38596">
        <ele>229.863</ele>
        <time>2019-09-22T10:27:01.001Z</time>
      </trkpt>
      <trkpt lat="49.11813" lon="5.38676">
        <ele>229.208</ele>
        <time>2019-09-22T10:27:31.001Z</time>
      </trkpt>
      <trkpt lat="49.11698" lon="5.38706">
        <ele>232.225</ele>
        <time>2019-09-22T10:28:01.001Z</time>
      </trkpt>
      <trkpt lat="49.11514" lon="5.38677">
        <ele>227.211</ele>
        <time>2019-09-22T10:28:31.001Z</time>
      </trkpt>
      <trkpt lat="49.11261" lon="5.38644">
        <ele>218.515</ele>
        <time>2019-09-22T10:29:01.001Z</time>
      </trkpt>
      <trkpt lat="49.1106" lon="5.38585">
        <ele>211.036</ele>
        <time>2019-09-22T10:29:31.001Z</time>
      </trkpt>
      <trkpt lat="49.10894" lon="5.38551">
        <ele>206.025</ele>
        <time>2019-09-22T10:30:01.001Z</time>
      </trkpt>
      <trkpt lat="49.10719" lon="5.38512">
        <ele>200.512</ele>
        <time>2019-09-22T10:30:31.001Z</time>
      </trkpt>
      <trkpt lat="49.10529" lon="5.38469">
        <ele>199.465</ele>
        <time>2019-09-22T10:31:01.001Z</time>
      </trkpt>
      <trkpt lat="49.10397" lon="5.38436">
        <ele>199.543</ele>
        <time>2019-09-22T10:31:31.001Z</time>
      </trkpt>
      <trkpt lat="49.10268" lon="5.38467">
        <ele>196.487</ele>
        <time>2019-09-22T10:32:01.001Z</time>
      </trkpt>
      <trkpt lat="49.10145" lon="5.38554">
        <ele>196.381</ele>
        <time>2019-09-22T10:32:31.001Z</time>
      </trkpt>
      <trkpt lat="49.1003" lon="5.38671">
        <ele>201.119</ele>
        <time>2019-09-22T10:33:01.001Z</time>
      </trkpt>
      <trkpt lat="49.09915" lon="5.38785">
        <ele>198.323</ele>
        <time>2019-09-22T10:33:31.001Z</time>
      </trkpt>
      <trkpt lat="49.09809" lon="5.38896">
        <ele>198.102</ele>
        <time>2019-09-22T10:34:01.001Z</time>
      </trkpt>
      <trkpt lat="49.09695" lon="5.38996">
        <ele>197.617</ele>
        <time>2019-09-22T10:34:31.001Z</time>
      </trkpt>
      <trkpt lat="49.0957" lon="5.39064">
        <ele>197.552</ele>
        <time>2019-09-22T10:35:01.001Z</time>
      </trkpt>
      <trkpt lat="49.09451" lon="5.39126">
        <ele>197.072</ele>
        <time>2019-09-22T10:35:31.001Z</time>
      </trkpt>
      <trkpt lat="49.09323" lon="5.39199">
        <ele>196.544</ele>
        <time>2019-09-22T10:36:01.001Z</time>
      </trkpt>
      <trkpt lat="49.09207" lon="5.39251">
        <ele>196.345</ele>
        <time>2019-09-22T10:36:31.001Z</time>
      </trkpt>
      <trkpt lat="49.09092" lon="5.39366">
        <ele>198.962</ele>
        <time>2019-09-22T10:37:01.001Z</time>
      </trkpt>
      <trkpt lat="49.08977" lon="5.39456">
        <ele>196.935</ele>
        <time>2019-09-22T10:37:31.001Z</time>
      </trkpt>
      <trkpt lat="49.08871" lon="5.39542">
        <ele>198.278</ele>
        <time>2019-09-22T10:38:01.001Z</time>
      </trkpt>
      <trkpt lat="49.0876" lon="5.39639">
        <ele>202.223</ele>
        <time>2019-09-22T10:38:31.001Z</time>
      </trkpt>
      <trkpt lat="49.0866" lon="5.39757">
        <ele>201.66</ele>
        <time>2019-09-22T10:39:01.001Z</time>
      </trkpt>
      <trkpt lat="49.08556" lon="5.39887">
        <ele>202.341</ele>
        <time>2019-09-22T10:39:31.001Z</time>
      </trkpt>
      <trkpt lat="49.08457" lon="5.40013">
        <ele>202.421</ele>
        <time>2019-09-22T10:40:01.001Z</time>
      </trkpt>
      <trkpt lat="49.08353" lon="5.40142">
        <ele>201.461</ele>
        <time>2019-09-22T10:40:31.001Z</time>
      </trkpt>
      <trkpt lat="49.08238" lon="5.40247">
        <ele>200.082</ele>
        <time>2019-09-22T10:41:01.001Z</time>
      </trkpt>
      <trkpt lat="49.08119" lon="5.40349">
        <ele>200.007</ele>
        <time>2019-09-22T10:41:31.001Z</time>
      </trkpt>
      <trkpt lat="49.08" lon="5.40448">
        <ele>198.287</ele>
        <time>2019-09-22T10:42:01.001Z</time>
      </trkpt>
      <trkpt lat="49.07878" lon="5.40557">
        <ele>199.502</ele>
        <time>2019-09-22T10:42:31.001Z</time>
      </trkpt>
      <trkpt lat="49.07758" lon="5.4066">
        <ele>198.943</ele>
        <time>2019-09-22T10:43:01.001Z</time>
      </trkpt>
      <trkpt lat="49.07632" lon="5.4077">
        <ele>201.144</ele>
        <time>2019-09-22T10:43:31.001Z</time>
      </trkpt>
      <trkpt lat="49.07507" lon="5.40873">
        <ele>198.268</ele>
        <time>2019-09-22T10:44:01.001Z</time>
      </trkpt>
      <trkpt lat="49.07375" lon="5.40947">
        <ele>197.518</ele>
        <time>2019-09-22T10:44:31.001Z</time>
      </trkpt>
      <trkpt lat="49.0724" lon="5.40951">
        <ele>195.046</ele>
        <time>2019-09-22T10:45:01.001Z</time>
      </trkpt>
      <trkpt lat="49.07106" lon="5.40948">
        <ele>202.201</ele>
        <time>2019-09-22T10:45:31.001Z</time>
      </trkpt>
      <trkpt lat="49.0696" lon="5.40944">
        <ele>203.597</ele>
        <time>2019-09-22T10:46:01.001Z</time>
      </trkpt>
      <trkpt lat="49.0683" lon="5.40903">
        <ele>199.984</ele>
        <time>2019-09-22T10:46:31.001Z</time>
      </trkpt>
      <trkpt lat="49.06705" lon="5.40864">
        <ele>199.307</ele>
        <time>2019-09-22T10:47:01.001Z</time>
      </trkpt>
      <trkpt lat="49.06575" lon="5.40857">
        <ele>200.848</ele>
        <time>2019-09-22T10:47:31.001Z</time>
      </trkpt>
      <trkpt lat="49.06453" lon="5.40842">
        <ele>201.552</ele>
        <time>2019-09-22T10:48:01.001Z</time>
      </trkpt>
      <trkpt lat="49.06336" lon="5.40823">
        <ele>203.613</ele>
        <time>2019-09-22T10:48:31.001Z</time>
      </trkpt>
      <trkpt lat="49.06227" lon="5.40785">
        <ele>202.723</ele>
        <time>2019-09-22T10:49:01.001Z</time>
      </trkpt>
      <trkpt lat="49.06098" lon="5.40754">
        <ele>204.143</ele>
        <time>2019-09-22T10:49:31.001Z</time>
      </trkpt>
      <trkpt lat="49.05947" lon="5.40792">
        <ele>202.642</ele>
        <time>2019-09-22T10:50:01.001Z</time>
      </trkpt>
      <trkpt lat="49.05806" lon="5.40827">
        <ele>199.068</ele>
        <time>2019-09-22T10:50:31.001Z</time>
      </trkpt>
      <trkpt lat="49.05661" lon="5.40858">
        <ele>197.155</ele>
        <time>2019-09-22T10:51:01.001Z</time>
      </trkpt>
      <trkpt lat="49.05526" lon="5.40928">
        <ele>194.624</ele>
        <time>2019-09-22T10:51:31.001Z</time>
      </trkpt>
      <trkpt lat="49.05409" lon="5.41019">
        <ele>200.592</ele>
        <time>2019-09-22T10:52:01.001Z</time>
      </trkpt>
      <trkpt lat="49.05298" lon="5.41084">
        <ele>200.745</ele>
        <time>2019-09-22T10:52:31.001Z</time>
      </trkpt>
      <trkpt lat="49.05185" lon="5.41148">
        <ele>201.726</ele>
        <time>2019-09-22T10:53:01.001Z</time>
      </trkpt>
      <trkpt lat="49.05068" lon="5.41198">
        <ele>198.421</ele>
        <time>2019-09-22T10:53:31.001Z</time>
      </trkpt>
      <trkpt lat="49.04969" lon="5.41246">
        <ele>201.966</ele>
        <time>2019-09-22T10:54:01.001Z</time>
      </trkpt>
      <trkpt lat="49.04955" lon="5.41236">
        <ele>201.821</ele>
        <time>2019-09-22T10:54:40.001Z</time>
      </trkpt>
      <trkpt lat="49.04954" lon="5.41214">
        <ele>202.229</ele>
        <time>2019-09-22T11:22:19.001Z</time>
      </trkpt>
      <trkpt lat="49.04953" lon="5.41212">
        <ele>202.197</ele>
        <time>2019-09-22T11:34:04.001Z</time>
      </trkpt>
      <trkpt lat="49.0493" lon="5.41259">
        <ele>203.965</ele>
        <time>2019-09-22T11:35:52.001Z</time>
      </trkpt>
      <trkpt lat="49.04819" lon="5.41324">
        <ele>202.27</ele>
        <time>2019-09-22T11:36:22.001Z</time>
      </trkpt>
      <trkpt lat="49.04718" lon="5.41363">
        <ele>206.474</ele>
        <time>2019-09-22T11:36:52.001Z</time>
      </trkpt>
      <trkpt lat="49.04591" lon="5.41405">
        <ele>206.985</ele>
        <time>2019-09-22T11:37:22.001Z</time>
      </trkpt>
      <trkpt lat="49.04452" lon="5.41451">
        <ele>208.326</ele>
        <time>2019-09-22T11:37:52.001Z</time>
      </trkpt>
      <trkpt lat="49.04307" lon="5.41475">
        <ele>209.695</ele>
        <time>2019-09-22T11:38:22.001Z</time>
      </trkpt>
      <trkpt lat="49.04157" lon="5.4146">
        <ele>202.321</ele>
        <time>2019-09-22T11:38:52.001Z</time>
      </trkpt>
      <trkpt lat="49.04019" lon="5.41424">
        <ele>203.146</ele>
        <time>2019-09-22T11:39:22.001Z</time>
      </trkpt>
      <trkpt lat="49.03896" lon="5.41371">
        <ele>204.526</ele>
        <time>2019-09-22T11:39:52.001Z</time>
      </trkpt>
      <trkpt lat="49.03767" lon="5.41323">
        <ele>207.566</ele>
        <time>2019-09-22T11:40:22.001Z</time>
      </trkpt>
      <trkpt lat="49.0364" lon="5.41266">
        <ele>206.016</ele>
        <time>2019-09-22T11:40:52.001Z</time>
      </trkpt>
      <trkpt lat="49.03506" lon="5.41233">
        <ele>206.112</ele>
        <time>2019-09-22T11:41:22.001Z</time>
      </trkpt>
      <trkpt lat="49.03372" lon="5.41213">
        <ele>205.111</ele>
        <time>2019-09-22T11:41:52.001Z</time>
      </trkpt>
      <trkpt lat="49.03236" lon="5.41204">
        <ele>208.263</ele>
        <time>2019-09-22T11:42:22.001Z</time>
      </trkpt>
      <trkpt lat="49.03101" lon="5.41194">
        <ele>207.765</ele>
        <time>2019-09-22T11:42:52.001Z</time>
      </trkpt>
      <trkpt lat="49.02959" lon="5.41239">
        <ele>207.106</ele>
        <time>2019-09-22T11:43:22.001Z</time>
      </trkpt>
      <trkpt lat="49.0281" lon="5.4128">
        <ele>205.32</ele>
        <time>2019-09-22T11:43:52.001Z</time>
      </trkpt>
      <trkpt lat="49.02676" lon="5.4131">
        <ele>204.903</ele>
        <time>2019-09-22T11:44:22.001Z</time>
      </trkpt>
      <trkpt lat="49.02542" lon="5.41365">
        <ele>204.388</ele>
        <time>2019-09-22T11:44:52.001Z</time>
      </trkpt>
      <trkpt lat="49.02436" lon="5.41414">
        <ele>215.036</ele>
        <time>2019-09-22T11:45:22.001Z</time>
      </trkpt>
      <trkpt lat="49.02307" lon="5.41466">
        <ele>221.685</ele>
        <time>2019-09-22T11:45:52.001Z</time>
      </trkpt>
      <trkpt lat="49.02164" lon="5.41547">
        <ele>214.304</ele>
        <time>2019-09-22T11:46:22.001Z</time>
      </trkpt>
      <trkpt lat="49.02034" lon="5.41617">
        <ele>205.646</ele>
        <time>2019-09-22T11:46:52.001Z</time>
      </trkpt>
      <trkpt lat="49.01898" lon="5.417">
        <ele>208.478</ele>
        <time>2019-09-22T11:47:22.001Z</time>
      </trkpt>
      <trkpt lat="49.01776" lon="5.41808">
        <ele>207.438</ele>
        <time>2019-09-22T11:47:52.001Z</time>
      </trkpt>
      <trkpt lat="49.01643" lon="5.41901">
        <ele>204.433</ele>
        <time>2019-09-22T11:48:22.001Z</time>
      </trkpt>
      <trkpt lat="49.01498" lon="5.42004">
        <ele>206.244</ele>
        <time>2019-09-22T11:48:55.001Z</time>
      </trkpt>
      <trkpt lat="49.01365" lon="5.42094">
        <ele>205.813</ele>
        <time>2019-09-22T11:49:25.001Z</time>
      </trkpt>
      <trkpt lat="49.0124" lon="5.42181">
        <ele>206.134</ele>
        <time>2019-09-22T11:49:55.001Z</time>
      </trkpt>
      <trkpt lat="49.01124" lon="5.42299">
        <ele>206.049</ele>
        <time>2019-09-22T11:50:25.001Z</time>
      </trkpt>
      <trkpt lat="49.01016" lon="5.42446">
        <ele>206.344</ele>
        <time>2019-09-22T11:50:55.001Z</time>
      </trkpt>
      <trkpt lat="49.00927" lon="5.42592">
        <ele>205.683</ele>
        <time>2019-09-22T11:51:25.001Z</time>
      </trkpt>
      <trkpt lat="49.00867" lon="5.42756">
        <ele>207.978</ele>
        <time>2019-09-22T11:51:55.001Z</time>
      </trkpt>
      <trkpt lat="49.00797" lon="5.42916">
        <ele>207.78</ele>
        <time>2019-09-22T11:52:25.001Z</time>
      </trkpt>
      <trkpt lat="49.00711" lon="5.4308">
        <ele>205.862</ele>
        <time>2019-09-22T11:52:55.001Z</time>
      </trkpt>
      <trkpt lat="49.00631" lon="5.43232">
        <ele>206.061</ele>
        <time>2019-09-22T11:53:25.001Z</time>
      </trkpt>
      <trkpt lat="49.00556" lon="5.43392">
        <ele>205.499</ele>
        <time>2019-09-22T11:53:55.001Z</time>
      </trkpt>
      <trkpt lat="49.00486" lon="5.4355">
        <ele>206.103</ele>
        <time>2019-09-22T11:54:25.001Z</time>
      </trkpt>
      <trkpt lat="49.00425" lon="5.43689">
        <ele>209.365</ele>
        <time>2019-09-22T11:54:55.001Z</time>
      </trkpt>
      <trkpt lat="49.00368" lon="5.43815">
        <ele>211.554</ele>
        <time>2019-09-22T11:55:25.001Z</time>
      </trkpt>
      <trkpt lat="49.00295" lon="5.43982">
        <ele>213.533</ele>
        <time>2019-09-22T11:55:55.001Z</time>
      </trkpt>
      <trkpt lat="49.00175" lon="5.44118">
        <ele>210.176</ele>
        <time>2019-09-22T11:56:25.001Z</time>
      </trkpt>
      <trkpt lat="49.00061" lon="5.44272">
        <ele>209.351</ele>
        <time>2019-09-22T11:56:55.001Z</time>
      </trkpt>
      <trkpt lat="48.99957" lon="5.44414">
        <ele>206.542</ele>
        <time>2019-09-22T11:57:25.001Z</time>
      </trkpt>
      <trkpt lat="48.99876" lon="5.44524">
        <ele>207.564</ele>
        <time>2019-09-22T11:57:55.001Z</time>
      </trkpt>
      <trkpt lat="48.99801" lon="5.44625">
        <ele>209.326</ele>
        <time>2019-09-22T11:58:25.001Z</time>
      </trkpt>
      <trkpt lat="48.99728" lon="5.44719">
        <ele>210.136</ele>
        <time>2019-09-22T11:58:55.001Z</time>
      </trkpt>
      <trkpt lat="48.99624" lon="5.44813">
        <ele>210.991</ele>
        <time>2019-09-22T11:59:25.001Z</time>
      </trkpt>
      <trkpt lat="48.99501" lon="5.44913">
        <ele>209.509</ele>
        <time>2019-09-22T11:59:55.001Z</time>
      </trkpt>
      <trkpt lat="48.99392" lon="5.44998">
        <ele>210.881</ele>
        <time>2019-09-22T12:00:25.001Z</time>
      </trkpt>
      <trkpt lat="48.993" lon="5.45071">
        <ele>213.078</ele>
        <time>2019-09-22T12:00:55.001Z</time>
      </trkpt>
      <trkpt lat="48.99222" lon="5.45136">
        <ele>217.867</ele>
        <time>2019-09-22T12:01:25.001Z</time>
      </trkpt>
      <trkpt lat="48.9913" lon="5.4521">
        <ele>217.823</ele>
        <time>2019-09-22T12:01:55.001Z</time>
      </trkpt>
      <trkpt lat="48.98991" lon="5.45348">
        <ele>214.623</ele>
        <time>2019-09-22T12:02:25.001Z</time>
      </trkpt>
      <trkpt lat="48.98805" lon="5.45501">
        <ele>206.134</ele>
        <time>2019-09-22T12:02:55.001Z</time>
      </trkpt>
      <trkpt lat="48.98663" lon="5.45595">
        <ele>205.591</ele>
        <time>2019-09-22T12:03:25.001Z</time>
      </trkpt>
      <trkpt lat="48.98531" lon="5.45717">
        <ele>206.034</ele>
        <time>2019-09-22T12:03:55.001Z</time>
      </trkpt>
      <trkpt lat="48.98423" lon="5.45851">
        <ele>204.449</ele>
        <time>2019-09-22T12:04:25.001Z</time>
      </trkpt>
      <trkpt lat="48.98322" lon="5.45991">
        <ele>208.043</ele>
        <time>2019-09-22T12:04:55.001Z</time>
      </trkpt>
      <trkpt lat="48.9822" lon="5.46137">
        <ele>208.239</ele>
        <time>2019-09-22T12:05:25.001Z</time>
      </trkpt>
      <trkpt lat="48.98115" lon="5.46275">
        <ele>207.351</ele>
        <time>2019-09-22T12:05:55.001Z</time>
      </trkpt>
      <trkpt lat="48.98012" lon="5.46413">
        <ele>208.452</ele>
        <time>2019-09-22T12:06:25.001Z</time>
      </trkpt>
      <trkpt lat="48.97912" lon="5.46552">
        <ele>208.138</ele>
        <time>2019-09-22T12:06:55.001Z</time>
      </trkpt>
      <trkpt lat="48.97813" lon="5.46681">
        <ele>209.32</ele>
        <time>2019-09-22T12:07:25.001Z</time>
      </trkpt>
      <trkpt lat="48.97716" lon="5.46814">
        <ele>211.765</ele>
        <time>2019-09-22T12:07:55.001Z</time>
      </trkpt>
      <trkpt lat="48.97632" lon="5.46972">
        <ele>206.801</ele>
        <time>2019-09-22T12:08:25.001Z</time>
      </trkpt>
      <trkpt lat="48.97594" lon="5.47164">
        <ele>209.794</ele>
        <time>2019-09-22T12:08:55.001Z</time>
      </trkpt>
      <trkpt lat="48.97554" lon="5.47368">
        <ele>208.17</ele>
        <time>2019-09-22T12:09:25.001Z</time>
      </trkpt>
      <trkpt lat="48.97512" lon="5.4758">
        <ele>208.388</ele>
        <time>2019-09-22T12:09:55.001Z</time>
      </trkpt>
      <trkpt lat="48.97473" lon="5.47779">
        <ele>208.972</ele>
        <time>2019-09-22T12:10:25.001Z</time>
      </trkpt>
      <trkpt lat="48.97435" lon="5.47987">
        <ele>209.627</ele>
        <time>2019-09-22T12:10:55.001Z</time>
      </trkpt>
      <trkpt lat="48.97396" lon="5.48197">
        <ele>213.542</ele>
        <time>2019-09-22T12:11:25.001Z</time>
      </trkpt>
      <trkpt lat="48.97358" lon="5.4841">
        <ele>211.252</ele>
        <time>2019-09-22T12:11:55.001Z</time>
      </trkpt>
      <trkpt lat="48.97333" lon="5.48612">
        <ele>214.232</ele>
        <time>2019-09-22T12:12:25.001Z</time>
      </trkpt>
      <trkpt lat="48.973" lon="5.48817">
        <ele>213.789</ele>
        <time>2019-09-22T12:12:55.001Z</time>
      </trkpt>
      <trkpt lat="48.97277" lon="5.48989">
        <ele>217.004</ele>
        <time>2019-09-22T12:13:25.001Z</time>
      </trkpt>
      <trkpt lat="48.97227" lon="5.49183">
        <ele>214.325</ele>
        <time>2019-09-22T12:13:55.001Z</time>
      </trkpt>
      <trkpt lat="48.97159" lon="5.49366">
        <ele>209.248</ele>
        <time>2019-09-22T12:14:25.001Z</time>
      </trkpt>
      <trkpt lat="48.97086" lon="5.49563">
        <ele>210.71</ele>
        <time>2019-09-22T12:14:55.001Z</time>
      </trkpt>
      <trkpt lat="48.97021" lon="5.49731">
        <ele>212.381</ele>
        <time>2019-09-22T12:15:25.001Z</time>
      </trkpt>
      <trkpt lat="48.96954" lon="5.49903">
        <ele>212.846</ele>
        <time>2019-09-22T12:15:55.001Z</time>
      </trkpt>
      <trkpt lat="48.9685" lon="5.50028">
        <ele>213.393</ele>
        <time>2019-09-22T12:16:25.001Z</time>
      </trkpt>
      <trkpt lat="48.96739" lon="5.50085">
        <ele>211.71</ele>
        <time>2019-09-22T12:16:55.001Z</time>
      </trkpt>
      <trkpt lat="48.96598" lon="5.5014">
        <ele>211.194</ele>
        <time>2019-09-22T12:17:25.001Z</time>
      </trkpt>
      <trkpt lat="48.96468" lon="5.50151">
        <ele>213.148</ele>
        <time>2019-09-22T12:17:55.001Z</time>
      </trkpt>
      <trkpt lat="48.96366" lon="5.50111">
        <ele>213.222</ele>
        <time>2019-09-22T12:18:25.001Z</time>
      </trkpt>
      <trkpt lat="48.96285" lon="5.50041">
        <ele>215.488</ele>
        <time>2019-09-22T12:18:55.001Z</time>
      </trkpt>
      <trkpt lat="48.962" lon="5.49978">
        <ele>217.963</ele>
        <time>2019-09-22T12:19:25.001Z</time>
      </trkpt>
      <trkpt lat="48.9609" lon="5.49911">
        <ele>217.724</ele>
        <time>2019-09-22T12:19:55.001Z</time>
      </trkpt>
      <trkpt lat="48.95949" lon="5.49826">
        <ele>215.772</ele>
        <time>2019-09-22T12:20:25.001Z</time>
      </trkpt>
      <trkpt lat="48.95819" lon="5.49806">
        <ele>215.15</ele>
        <time>2019-09-22T12:20:55.001Z</time>
      </trkpt>
      <trkpt lat="48.95714" lon="5.49817">
        <ele>218.507</ele>
        <time>2019-09-22T12:21:25.001Z</time>
      </trkpt>
      <trkpt lat="48.95568" lon="5.4988">
        <ele>214.354</ele>
        <time>2019-09-22T12:21:55.001Z</time>
      </trkpt>
      <trkpt lat="48.95448" lon="5.49945">
        <ele>215.245</ele>
        <time>2019-09-22T12:22:25.001Z</time>
      </trkpt>
      <trkpt lat="48.95348" lon="5.49952">
        <ele>219.006</ele>
        <time>2019-09-22T12:22:55.001Z</time>
      </trkpt>
      <trkpt lat="48.95238" lon="5.4992">
        <ele>220.095</ele>
        <time>2019-09-22T12:23:25.001Z</time>
      </trkpt>
      <trkpt lat="48.95117" lon="5.49877">
        <ele>217.501</ele>
        <time>2019-09-22T12:23:55.001Z</time>
      </trkpt>
      <trkpt lat="48.94987" lon="5.49831">
        <ele>218.015</ele>
        <time>2019-09-22T12:24:25.001Z</time>
      </trkpt>
      <trkpt lat="48.94843" lon="5.49803">
        <ele>216.862</ele>
        <time>2019-09-22T12:24:55.001Z</time>
      </trkpt>
      <trkpt lat="48.94679" lon="5.49787">
        <ele>215.555</ele>
        <time>2019-09-22T12:25:25.001Z</time>
      </trkpt>
      <trkpt lat="48.94536" lon="5.49748">
        <ele>213.838</ele>
        <time>2019-09-22T12:25:55.001Z</time>
      </trkpt>
      <trkpt lat="48.94385" lon="5.4968">
        <ele>210.936</ele>
        <time>2019-09-22T12:26:25.001Z</time>
      </trkpt>
      <trkpt lat="48.94243" lon="5.49614">
        <ele>210.128</ele>
        <time>2019-09-22T12:26:55.001Z</time>
      </trkpt>
      <trkpt lat="48.94101" lon="5.49547">
        <ele>212.539</ele>
        <time>2019-09-22T12:27:25.001Z</time>
      </trkpt>
      <trkpt lat="48.93955" lon="5.49468">
        <ele>213.047</ele>
        <time>2019-09-22T12:27:55.001Z</time>
      </trkpt>
      <trkpt lat="48.93832" lon="5.49371">
        <ele>215.814</ele>
        <time>2019-09-22T12:28:25.001Z</time>
      </trkpt>
      <trkpt lat="48.93719" lon="5.49288">
        <ele>215.084</ele>
        <time>2019-09-22T12:28:55.001Z</time>
      </trkpt>
      <trkpt lat="48.93602" lon="5.49223">
        <ele>213.094</ele>
        <time>2019-09-22T12:29:25.001Z</time>
      </trkpt>
      <trkpt lat="48.93482" lon="5.49163">
        <ele>212.068</ele>
        <time>2019-09-22T12:29:55.001Z</time>
      </trkpt>
      <trkpt lat="48.93353" lon="5.49102">
        <ele>212.42</ele>
        <time>2019-09-22T12:30:25.001Z</time>
      </trkpt>
      <trkpt lat="48.93226" lon="5.49035">
        <ele>213.581</ele>
        <time>2019-09-22T12:30:55.001Z</time>
      </trkpt>
      <trkpt lat="48.93113" lon="5.48995">
        <ele>215.504</ele>
        <time>2019-09-22T12:31:25.001Z</time>
      </trkpt>
      <trkpt lat="48.92982" lon="5.49018">
        <ele>215.499</ele>
        <time>2019-09-22T12:31:55.001Z</time>
      </trkpt>
      <trkpt lat="48.92832" lon="5.48999">
        <ele>214.741</ele>
        <time>2019-09-22T12:32:25.001Z</time>
      </trkpt>
      <trkpt lat="48.92705" lon="5.48996">
        <ele>209.08</ele>
        <time>2019-09-22T12:32:55.001Z</time>
      </trkpt>
      <trkpt lat="48.9258" lon="5.49069">
        <ele>209.243</ele>
        <time>2019-09-22T12:33:25.001Z</time>
      </trkpt>
      <trkpt lat="48.92468" lon="5.49192">
        <ele>215.537</ele>
        <time>2019-09-22T12:33:55.001Z</time>
      </trkpt>
      <trkpt lat="48.92373" lon="5.49307">
        <ele>219.52</ele>
        <time>2019-09-22T12:34:25.001Z</time>
      </trkpt>
      <trkpt lat="48.92254" lon="5.49435">
        <ele>216.514</ele>
        <time>2019-09-22T12:34:55.001Z</time>
      </trkpt>
      <trkpt lat="48.92152" lon="5.49541">
        <ele>212.331</ele>
        <time>2019-09-22T12:35:25.001Z</time>
      </trkpt>
      <trkpt lat="48.92051" lon="5.49631">
        <ele>213.662</ele>
        <time>2019-09-22T12:35:55.001Z</time>
      </trkpt>
      <trkpt lat="48.9192" lon="5.49757">
        <ele>213.853</ele>
        <time>2019-09-22T12:36:25.001Z</time>
      </trkpt>
      <trkpt lat="48.91826" lon="5.49891">
        <ele>217.127</ele>
        <time>2019-09-22T12:36:55.001Z</time>
      </trkpt>
      <trkpt lat="48.91756" lon="5.50011">
        <ele>223.156</ele>
        <time>2019-09-22T12:37:25.001Z</time>
      </trkpt>
      <trkpt lat="48.91708" lon="5.50105">
        <ele>229.828</ele>
        <time>2019-09-22T12:37:55.001Z</time>
      </trkpt>
      <trkpt lat="48.91645" lon="5.50203">
        <ele>231.483</ele>
        <time>2019-09-22T12:38:25.001Z</time>
      </trkpt>
      <trkpt lat="48.91507" lon="5.50346">
        <ele>223.559</ele>
        <time>2019-09-22T12:38:55.001Z</time>
      </trkpt>
      <trkpt lat="48.91396" lon="5.50448">
        <ele>217.419</ele>
        <time>2019-09-22T12:39:25.001Z</time>
      </trkpt>
      <trkpt lat="48.91301" lon="5.50583">
        <ele>220.978</ele>
        <time>2019-09-22T12:39:55.001Z</time>
      </trkpt>
      <trkpt lat="48.91184" lon="5.50764">
        <ele>221.795</ele>
        <time>2019-09-22T12:40:25.001Z</time>
      </trkpt>
      <trkpt lat="48.91074" lon="5.50935">
        <ele>221.77</ele>
        <time>2019-09-22T12:40:55.001Z</time>
      </trkpt>
      <trkpt lat="48.90971" lon="5.51108">
        <ele>220.714</ele>
        <time>2019-09-22T12:41:25.001Z</time>
      </trkpt>
      <trkpt lat="48.90846" lon="5.51315">
        <ele>218.37</ele>
        <time>2019-09-22T12:41:55.001Z</time>
      </trkpt>
      <trkpt lat="48.90729" lon="5.51448">
        <ele>217.255</ele>
        <time>2019-09-22T12:42:25.001Z</time>
      </trkpt>
      <trkpt lat="48.90604" lon="5.51587">
        <ele>215.118</ele>
        <time>2019-09-22T12:42:55.001Z</time>
      </trkpt>
      <trkpt lat="48.90485" lon="5.5172">
        <ele>214.376</ele>
        <time>2019-09-22T12:43:25.001Z</time>
      </trkpt>
      <trkpt lat="48.90382" lon="5.5185">
        <ele>216.654</ele>
        <time>2019-09-22T12:43:55.001Z</time>
      </trkpt>
      <trkpt lat="48.9032" lon="5.51938">
        <ele>217.456</ele>
        <time>2019-09-22T12:44:25.001Z</time>
      </trkpt>
      <trkpt lat="48.90271" lon="5.52006">
        <ele>218.134</ele>
        <time>2019-09-22T12:44:55.001Z</time>
      </trkpt>
      <trkpt lat="48.90229" lon="5.52155">
        <ele>224.898</ele>
        <time>2019-09-22T12:45:25.001Z</time>
      </trkpt>
      <trkpt lat="48.9017" lon="5.52322">
        <ele>229.281</ele>
        <time>2019-09-22T12:45:55.001Z</time>
      </trkpt>
      <trkpt lat="48.90086" lon="5.52556">
        <ele>224.037</ele>
        <time>2019-09-22T12:46:25.001Z</time>
      </trkpt>
      <trkpt lat="48.89992" lon="5.5281">
        <ele>223.042</ele>
        <time>2019-09-22T12:46:55.001Z</time>
      </trkpt>
      <trkpt lat="48.8992" lon="5.52991">
        <ele>223.855</ele>
        <time>2019-09-22T12:47:25.001Z</time>
      </trkpt>
      <trkpt lat="48.89856" lon="5.53122">
        <ele>227.911</ele>
        <time>2019-09-22T12:47:58.001Z</time>
      </trkpt>
      <trkpt lat="48.89807" lon="5.53211">
        <ele>227.19</ele>
        <time>2019-09-22T12:55:10.001Z</time>
      </trkpt>
      <trkpt lat="48.89742" lon="5.53336">
        <ele>226.362</ele>
        <time>2019-09-22T12:55:40.001Z</time>
      </trkpt>
      <trkpt lat="48.89661" lon="5.53491">
        <ele>225.993</ele>
        <time>2019-09-22T12:56:10.001Z</time>
      </trkpt>
      <trkpt lat="48.89556" lon="5.5366">
        <ele>224.188</ele>
        <time>2019-09-22T12:56:40.001Z</time>
      </trkpt>
      <trkpt lat="48.89438" lon="5.5373">
        <ele>217.673</ele>
        <time>2019-09-22T12:57:10.001Z</time>
      </trkpt>
      <trkpt lat="48.89433" lon="5.53688">
        <ele>215.852</ele>
        <time>2019-09-22T13:02:01.001Z</time>
      </trkpt>
      <trkpt lat="48.89432" lon="5.53692">
        <ele>217.094</ele>
        <time>2019-09-22T13:03:55.001Z</time>
      </trkpt>
      <trkpt lat="48.89432" lon="5.53691">
        <ele>216.837</ele>
        <time>2019-09-22T13:11:01.001Z</time>
      </trkpt>
      <trkpt lat="48.89433" lon="5.53692">
        <ele>216.837</ele>
        <time>2019-09-22T13:13:46.001Z</time>
      </trkpt>
      <trkpt lat="48.89435" lon="5.53692">
        <ele>218.901</ele>
        <time>2019-09-22T13:28:01.001Z</time>
      </trkpt>
      <trkpt lat="48.89432" lon="5.53695">
        <ele>219.716</ele>
        <time>2019-09-22T13:32:46.001Z</time>
      </trkpt>
      <trkpt lat="48.89406" lon="5.53745">
        <ele>222.591</ele>
        <time>2019-09-22T13:36:34.001Z</time>
      </trkpt>
      <trkpt lat="48.89363" lon="5.53838">
        <ele>225.035</ele>
        <time>2019-09-22T13:37:04.001Z</time>
      </trkpt>
      <trkpt lat="48.89284" lon="5.54002">
        <ele>224.471</ele>
        <time>2019-09-22T13:37:34.001Z</time>
      </trkpt>
      <trkpt lat="48.89228" lon="5.54099">
        <ele>229.152</ele>
        <time>2019-09-22T13:42:28.001Z</time>
      </trkpt>
      <trkpt lat="48.89127" lon="5.5408">
        <ele>232.641</ele>
        <time>2019-09-22T13:42:58.001Z</time>
      </trkpt>
      <trkpt lat="48.88995" lon="5.54091">
        <ele>235.523</ele>
        <time>2019-09-22T13:43:28.001Z</time>
      </trkpt>
      <trkpt lat="48.88887" lon="5.54036">
        <ele>226.084</ele>
        <time>2019-09-22T13:43:58.001Z</time>
      </trkpt>
      <trkpt lat="48.88837" lon="5.54163">
        <ele>235.59</ele>
        <time>2019-09-22T13:44:28.001Z</time>
      </trkpt>
      <trkpt lat="48.88797" lon="5.54349">
        <ele>239.666</ele>
        <time>2019-09-22T13:44:58.001Z</time>
      </trkpt>
      <trkpt lat="48.88799" lon="5.54531">
        <ele>235.539</ele>
        <time>2019-09-22T13:45:28.001Z</time>
      </trkpt>
      <trkpt lat="48.88817" lon="5.54714">
        <ele>239.985</ele>
        <time>2019-09-22T13:45:58.001Z</time>
      </trkpt>
      <trkpt lat="48.88793" lon="5.54908">
        <ele>242.34</ele>
        <time>2019-09-22T13:46:28.001Z</time>
      </trkpt>
      <trkpt lat="48.88766" lon="5.55075">
        <ele>249.338</ele>
        <time>2019-09-22T13:46:58.001Z</time>
      </trkpt>
      <trkpt lat="48.88775" lon="5.55251">
        <ele>236.042</ele>
        <time>2019-09-22T13:47:28.001Z</time>
      </trkpt>
      <trkpt lat="48.8877" lon="5.55425">
        <ele>233.915</ele>
        <time>2019-09-22T13:47:58.001Z</time>
      </trkpt>
      <trkpt lat="48.88709" lon="5.55587">
        <ele>230.644</ele>
        <time>2019-09-22T13:48:28.001Z</time>
      </trkpt>
      <trkpt lat="48.8868" lon="5.55726">
        <ele>235.37</ele>
        <time>2019-09-22T13:48:58.001Z</time>
      </trkpt>
      <trkpt lat="48.8868" lon="5.55828">
        <ele>243.277</ele>
        <time>2019-09-22T13:49:28.001Z</time>
      </trkpt>
      <trkpt lat="48.88677" lon="5.55905">
        <ele>250.879</ele>
        <time>2019-09-22T13:49:58.001Z</time>
      </trkpt>
      <trkpt lat="48.88666" lon="5.55999">
        <ele>253.679</ele>
        <time>2019-09-22T13:50:28.001Z</time>
      </trkpt>
      <trkpt lat="48.88629" lon="5.5607">
        <ele>253.275</ele>
        <time>2019-09-22T13:51:01.001Z</time>
      </trkpt>
      <trkpt lat="48.88592" lon="5.56126">
        <ele>255.923</ele>
        <time>2019-09-22T13:51:34.001Z</time>
      </trkpt>
      <trkpt lat="48.88554" lon="5.56186">
        <ele>259.27</ele>
        <time>2019-09-22T13:52:07.001Z</time>
      </trkpt>
      <trkpt lat="48.88508" lon="5.56256">
        <ele>269.743</ele>
        <time>2019-09-22T13:52:37.001Z</time>
      </trkpt>
      <trkpt lat="48.88461" lon="5.56331">
        <ele>269.733</ele>
        <time>2019-09-22T13:53:07.001Z</time>
      </trkpt>
      <trkpt lat="48.88422" lon="5.56392">
        <ele>270.805</ele>
        <time>2019-09-22T13:53:37.001Z</time>
      </trkpt>
      <trkpt lat="48.88386" lon="5.56447">
        <ele>273.393</ele>
        <time>2019-09-22T13:54:07.001Z</time>
      </trkpt>
      <trkpt lat="48.88346" lon="5.56504">
        <ele>277.399</ele>
        <time>2019-09-22T13:54:40.001Z</time>
      </trkpt>
      <trkpt lat="48.88306" lon="5.5657">
        <ele>277.435</ele>
        <time>2019-09-22T13:55:16.000Z</time>
      </trkpt>
      <trkpt lat="48.88262" lon="5.56635">
        <ele>281.341</ele>
        <time>2019-09-22T13:55:46.001Z</time>
      </trkpt>
      <trkpt lat="48.882" lon="5.56732">
        <ele>285.011</ele>
        <time>2019-09-22T13:56:16.000Z</time>
      </trkpt>
      <trkpt lat="48.8812" lon="5.56829">
        <ele>286.232</ele>
        <time>2019-09-22T13:56:46.001Z</time>
      </trkpt>
      <trkpt lat="48.88052" lon="5.56905">
        <ele>287.437</ele>
        <time>2019-09-22T13:57:16.000Z</time>
      </trkpt>
      <trkpt lat="48.87997" lon="5.56965">
        <ele>292.303</ele>
        <time>2019-09-22T13:57:46.001Z</time>
      </trkpt>
      <trkpt lat="48.87945" lon="5.5702">
        <ele>295.642</ele>
        <time>2019-09-22T13:58:16.000Z</time>
      </trkpt>
      <trkpt lat="48.87892" lon="5.57079">
        <ele>298.462</ele>
        <time>2019-09-22T13:58:46.001Z</time>
      </trkpt>
      <trkpt lat="48.87839" lon="5.57138">
        <ele>302.709</ele>
        <time>2019-09-22T13:59:16.000Z</time>
      </trkpt>
      <trkpt lat="48.87786" lon="5.57197">
        <ele>307.52</ele>
        <time>2019-09-22T13:59:46.001Z</time>
      </trkpt>
      <trkpt lat="48.87733" lon="5.57257">
        <ele>308.404</ele>
        <time>2019-09-22T14:00:16.000Z</time>
      </trkpt>
      <trkpt lat="48.87675" lon="5.57318">
        <ele>308.962</ele>
        <time>2019-09-22T14:00:46.001Z</time>
      </trkpt>
      <trkpt lat="48.87623" lon="5.57375">
        <ele>313.61</ele>
        <time>2019-09-22T14:01:16.000Z</time>
      </trkpt>
      <trkpt lat="48.87576" lon="5.57428">
        <ele>316.358</ele>
        <time>2019-09-22T14:01:46.001Z</time>
      </trkpt>
      <trkpt lat="48.8753" lon="5.57476">
        <ele>321.21</ele>
        <time>2019-09-22T14:02:16.000Z</time>
      </trkpt>
      <trkpt lat="48.87487" lon="5.57523">
        <ele>325.405</ele>
        <time>2019-09-22T14:02:46.001Z</time>
      </trkpt>
      <trkpt lat="48.87447" lon="5.57567">
        <ele>328.336</ele>
        <time>2019-09-22T14:03:16.000Z</time>
      </trkpt>
      <trkpt lat="48.87402" lon="5.57616">
        <ele>331.322</ele>
        <time>2019-09-22T14:03:46.001Z</time>
      </trkpt>
      <trkpt lat="48.87309" lon="5.57718">
        <ele>332.813</ele>
        <time>2019-09-22T14:04:16.000Z</time>
      </trkpt>
      <trkpt lat="48.87212" lon="5.57825">
        <ele>328.011</ele>
        <time>2019-09-22T14:04:46.001Z</time>
      </trkpt>
      <trkpt lat="48.87189" lon="5.57971">
        <ele>329.346</ele>
        <time>2019-09-22T14:05:16.000Z</time>
      </trkpt>
      <trkpt lat="48.87128" lon="5.5792">
        <ele>335.185</ele>
        <time>2019-09-22T14:05:46.001Z</time>
      </trkpt>
      <trkpt lat="48.87084" lon="5.57865">
        <ele>341.909</ele>
        <time>2019-09-22T14:06:16.000Z</time>
      </trkpt>
      <trkpt lat="48.87036" lon="5.57802">
        <ele>351.44</ele>
        <time>2019-09-22T14:06:46.001Z</time>
      </trkpt>
      <trkpt lat="48.86979" lon="5.57735">
        <ele>359.403</ele>
        <time>2019-09-22T14:07:16.000Z</time>
      </trkpt>
      <trkpt lat="48.86918" lon="5.57624">
        <ele>345.594</ele>
        <time>2019-09-22T14:07:46.001Z</time>
      </trkpt>
      <trkpt lat="48.86858" lon="5.57491">
        <ele>340.661</ele>
        <time>2019-09-22T14:08:16.000Z</time>
      </trkpt>
      <trkpt lat="48.86808" lon="5.57347">
        <ele>341.004</ele>
        <time>2019-09-22T14:08:46.001Z</time>
      </trkpt>
      <trkpt lat="48.8676" lon="5.57194">
        <ele>336.81</ele>
        <time>2019-09-22T14:09:16.000Z</time>
      </trkpt>
      <trkpt lat="48.86712" lon="5.57029">
        <ele>335.698</ele>
        <time>2019-09-22T14:09:46.001Z</time>
      </trkpt>
      <trkpt lat="48.86724" lon="5.56787">
        <ele>333.757</ele>
        <time>2019-09-22T14:10:16.000Z</time>
      </trkpt>
      <trkpt lat="48.86776" lon="5.56578">
        <ele>330.968</ele>
        <time>2019-09-22T14:10:46.001Z</time>
      </trkpt>
      <trkpt lat="48.86741" lon="5.56357">
        <ele>324.275</ele>
        <time>2019-09-22T14:11:16.000Z</time>
      </trkpt>
      <trkpt lat="48.86806" lon="5.56027">
        <ele>308.453</ele>
        <time>2019-09-22T14:11:46.001Z</time>
      </trkpt>
      <trkpt lat="48.86717" lon="5.55958">
        <ele>299.205</ele>
        <time>2019-09-22T14:12:16.000Z</time>
      </trkpt>
      <trkpt lat="48.86618" lon="5.55813">
        <ele>289.228</ele>
        <time>2019-09-22T14:12:46.001Z</time>
      </trkpt>
      <trkpt lat="48.86828" lon="5.55709">
        <ele>277.081</ele>
        <time>2019-09-22T14:13:16.000Z</time>
      </trkpt>
      <trkpt lat="48.86876" lon="5.55456">
        <ele>262.771</ele>
        <time>2019-09-22T14:13:46.001Z</time>
      </trkpt>
      <trkpt lat="48.86982" lon="5.55187">
        <ele>247.478</ele>
        <time>2019-09-22T14:14:16.000Z</time>
      </trkpt>
      <trkpt lat="48.86964" lon="5.54972">
        <ele>232.653</ele>
        <time>2019-09-22T14:14:46.001Z</time>
      </trkpt>
      <trkpt lat="48.86864" lon="5.54981">
        <ele>227.069</ele>
        <time>2019-09-22T14:15:16.000Z</time>
      </trkpt>
      <trkpt lat="48.86778" lon="5.55139">
        <ele>229.418</ele>
        <time>2019-09-22T14:15:46.001Z</time>
      </trkpt>
      <trkpt lat="48.86652" lon="5.55247">
        <ele>221.606</ele>
        <time>2019-09-22T14:16:16.000Z</time>
      </trkpt>
      <trkpt lat="48.8652" lon="5.55312">
        <ele>221.133</ele>
        <time>2019-09-22T14:16:46.001Z</time>
      </trkpt>
      <trkpt lat="48.86393" lon="5.55364">
        <ele>221.813</ele>
        <time>2019-09-22T14:17:16.000Z</time>
      </trkpt>
      <trkpt lat="48.86257" lon="5.55367">
        <ele>223.754</ele>
        <time>2019-09-22T14:17:46.001Z</time>
      </trkpt>
      <trkpt lat="48.86126" lon="5.55331">
        <ele>223.865</ele>
        <time>2019-09-22T14:18:16.000Z</time>
      </trkpt>
      <trkpt lat="48.86013" lon="5.55248">
        <ele>225.499</ele>
        <time>2019-09-22T14:18:46.001Z</time>
      </trkpt>
      <trkpt lat="48.85904" lon="5.55157">
        <ele>226.23</ele>
        <time>2019-09-22T14:19:16.000Z</time>
      </trkpt>
      <trkpt lat="48.85798" lon="5.55051">
        <ele>226.599</ele>
        <time>2019-09-22T14:19:46.001Z</time>
      </trkpt>
      <trkpt lat="48.85698" lon="5.54944">
        <ele>225.831</ele>
        <time>2019-09-22T14:20:16.000Z</time>
      </trkpt>
      <trkpt lat="48.85598" lon="5.5484">
        <ele>223.869</ele>
        <time>2019-09-22T14:20:46.001Z</time>
      </trkpt>
      <trkpt lat="48.85499" lon="5.5473">
        <ele>227.578</ele>
        <time>2019-09-22T14:21:16.000Z</time>
      </trkpt>
      <trkpt lat="48.85411" lon="5.54596">
        <ele>225.433</ele>
        <time>2019-09-22T14:21:46.001Z</time>
      </trkpt>
      <trkpt lat="48.8535" lon="5.54435">
        <ele>223.697</ele>
        <time>2019-09-22T14:22:16.000Z</time>
      </trkpt>
      <trkpt lat="48.8529" lon="5.54266">
        <ele>222.54</ele>
        <time>2019-09-22T14:22:46.001Z</time>
      </trkpt>
      <trkpt lat="48.85233" lon="5.54091">
        <ele>221.903</ele>
        <time>2019-09-22T14:23:16.000Z</time>
      </trkpt>
      <trkpt lat="48.85176" lon="5.53913">
        <ele>220.136</ele>
        <time>2019-09-22T14:23:46.001Z</time>
      </trkpt>
      <trkpt lat="48.85121" lon="5.53746">
        <ele>219.612</ele>
        <time>2019-09-22T14:24:16.000Z</time>
      </trkpt>
      <trkpt lat="48.85068" lon="5.53577">
        <ele>222.21</ele>
        <time>2019-09-22T14:24:46.001Z</time>
      </trkpt>
      <trkpt lat="48.85005" lon="5.53393">
        <ele>220.953</ele>
        <time>2019-09-22T14:25:16.000Z</time>
      </trkpt>
      <trkpt lat="48.84922" lon="5.53228">
        <ele>222.687</ele>
        <time>2019-09-22T14:25:46.001Z</time>
      </trkpt>
      <trkpt lat="48.84836" lon="5.5308">
        <ele>226.708</ele>
        <time>2019-09-22T14:26:16.000Z</time>
      </trkpt>
      <trkpt lat="48.84776" lon="5.52937">
        <ele>230.859</ele>
        <time>2019-09-22T14:26:46.001Z</time>
      </trkpt>
      <trkpt lat="48.84699" lon="5.52799">
        <ele>230.571</ele>
        <time>2019-09-22T14:27:16.000Z</time>
      </trkpt>
      <trkpt lat="48.84666" lon="5.52749">
        <ele>228.895</ele>
        <time>2019-09-22T14:34:46.001Z</time>
      </trkpt>
      <trkpt lat="48.84573" lon="5.52699">
        <ele>229.373</ele>
        <time>2019-09-22T14:35:16.000Z</time>
      </trkpt>
      <trkpt lat="48.84497" lon="5.52806">
        <ele>232.783</ele>
        <time>2019-09-22T14:35:46.001Z</time>
      </trkpt>
      <trkpt lat="48.84432" lon="5.529">
        <ele>229.876</ele>
        <time>2019-09-22T14:36:16.000Z</time>
      </trkpt>
      <trkpt lat="48.84386" lon="5.52965">
        <ele>235.338</ele>
        <time>2019-09-22T14:36:46.001Z</time>
      </trkpt>
      <trkpt lat="48.84339" lon="5.53022">
        <ele>238.54</ele>
        <time>2019-09-22T14:37:16.000Z</time>
      </trkpt>
      <trkpt lat="48.84293" lon="5.53078">
        <ele>240.888</ele>
        <time>2019-09-22T14:37:46.001Z</time>
      </trkpt>
      <trkpt lat="48.84241" lon="5.5313">
        <ele>243.164</ele>
        <time>2019-09-22T14:38:16.000Z</time>
      </trkpt>
      <trkpt lat="48.84182" lon="5.53182">
        <ele>246.613</ele>
        <time>2019-09-22T14:38:46.001Z</time>
      </trkpt>
      <trkpt lat="48.84117" lon="5.53219">
        <ele>251.358</ele>
        <time>2019-09-22T14:39:16.000Z</time>
      </trkpt>
      <trkpt lat="48.84049" lon="5.53256">
        <ele>254.245</ele>
        <time>2019-09-22T14:39:46.001Z</time>
      </trkpt>
      <trkpt lat="48.83982" lon="5.53299">
        <ele>257.076</ele>
        <time>2019-09-22T14:40:16.000Z</time>
      </trkpt>
      <trkpt lat="48.83908" lon="5.53349">
        <ele>258.053</ele>
        <time>2019-09-22T14:40:46.001Z</time>
      </trkpt>
      <trkpt lat="48.83809" lon="5.53405">
        <ele>257.758</ele>
        <time>2019-09-22T14:41:16.000Z</time>
      </trkpt>
      <trkpt lat="48.83707" lon="5.53485">
        <ele>257.986</ele>
        <time>2019-09-22T14:41:46.001Z</time>
      </trkpt>
      <trkpt lat="48.83617" lon="5.53576">
        <ele>258.591</ele>
        <time>2019-09-22T14:42:16.000Z</time>
      </trkpt>
      <trkpt lat="48.83495" lon="5.536">
        <ele>262.072</ele>
        <time>2019-09-22T14:42:46.001Z</time>
      </trkpt>
      <trkpt lat="48.83401" lon="5.53632">
        <ele>263.98</ele>
        <time>2019-09-22T14:43:16.000Z</time>
      </trkpt>
      <trkpt lat="48.8332" lon="5.53659">
        <ele>266.757</ele>
        <time>2019-09-22T14:43:46.001Z</time>
      </trkpt>
      <trkpt lat="48.8325" lon="5.53689">
        <ele>270.08</ele>
        <time>2019-09-22T14:44:16.000Z</time>
      </trkpt>
      <trkpt lat="48.83154" lon="5.53767">
        <ele>268.86</ele>
        <time>2019-09-22T14:44:46.001Z</time>
      </trkpt>
      <trkpt lat="48.8298" lon="5.53825">
        <ele>264.344</ele>
        <time>2019-09-22T14:45:16.000Z</time>
      </trkpt>
      <trkpt lat="48.82734" lon="5.537">
        <ele>247.897</ele>
        <time>2019-09-22T14:45:46.001Z</time>
      </trkpt>
      <trkpt lat="48.8259" lon="5.53665">
        <ele>233.824</ele>
        <time>2019-09-22T14:46:16.000Z</time>
      </trkpt>
      <trkpt lat="48.82407" lon="5.53692">
        <ele>227.129</ele>
        <time>2019-09-22T14:46:46.001Z</time>
      </trkpt>
      <trkpt lat="48.82263" lon="5.53712">
        <ele>226.677</ele>
        <time>2019-09-22T14:47:16.000Z</time>
      </trkpt>
      <trkpt lat="48.82117" lon="5.53734">
        <ele>227.283</ele>
        <time>2019-09-22T14:47:46.001Z</time>
      </trkpt>
      <trkpt lat="48.81972" lon="5.53755">
        <ele>228.419</ele>
        <time>2019-09-22T14:48:16.000Z</time>
      </trkpt>
      <trkpt lat="48.81844" lon="5.53773">
        <ele>227.793</ele>
        <time>2019-09-22T14:48:46.001Z</time>
      </trkpt>
      <trkpt lat="48.81723" lon="5.53791">
        <ele>231.399</ele>
        <time>2019-09-22T14:49:16.000Z</time>
      </trkpt>
      <trkpt lat="48.81628" lon="5.53808">
        <ele>232.984</ele>
        <time>2019-09-22T14:49:46.001Z</time>
      </trkpt>
      <trkpt lat="48.81549" lon="5.53834">
        <ele>235.812</ele>
        <time>2019-09-22T14:50:16.000Z</time>
      </trkpt>
      <trkpt lat="48.81484" lon="5.53891">
        <ele>240.196</ele>
        <time>2019-09-22T14:50:46.001Z</time>
      </trkpt>
      <trkpt lat="48.8135" lon="5.53942">
        <ele>238.946</ele>
        <time>2019-09-22T14:51:19.001Z</time>
      </trkpt>
      <trkpt lat="48.81195" lon="5.53971">
        <ele>237.321</ele>
        <time>2019-09-22T14:51:49.001Z</time>
      </trkpt>
      <trkpt lat="48.81057" lon="5.53998">
        <ele>237.87</ele>
        <time>2019-09-22T14:52:19.001Z</time>
      </trkpt>
      <trkpt lat="48.80874" lon="5.54035">
        <ele>232.118</ele>
        <time>2019-09-22T14:52:49.001Z</time>
      </trkpt>
      <trkpt lat="48.80759" lon="5.54058">
        <ele>232.249</ele>
        <time>2019-09-22T14:53:19.001Z</time>
      </trkpt>
      <trkpt lat="48.80669" lon="5.54086">
        <ele>235.699</ele>
        <time>2019-09-22T14:53:49.001Z</time>
      </trkpt>
      <trkpt lat="48.8058" lon="5.54131">
        <ele>236.724</ele>
        <time>2019-09-22T14:54:19.001Z</time>
      </trkpt>
      <trkpt lat="48.80464" lon="5.54218">
        <ele>238.469</ele>
        <time>2019-09-22T14:54:49.001Z</time>
      </trkpt>
      <trkpt lat="48.80337" lon="5.54349">
        <ele>235.961</ele>
        <time>2019-09-22T14:55:19.001Z</time>
      </trkpt>
      <trkpt lat="48.80241" lon="5.5452">
        <ele>237.108</ele>
        <time>2019-09-22T14:55:49.001Z</time>
      </trkpt>
      <trkpt lat="48.80133" lon="5.54669">
        <ele>234.606</ele>
        <time>2019-09-22T14:56:19.001Z</time>
      </trkpt>
      <trkpt lat="48.79967" lon="5.54593">
        <ele>231.487</ele>
        <time>2019-09-22T14:56:49.001Z</time>
      </trkpt>
      <trkpt lat="48.79838" lon="5.54505">
        <ele>228.464</ele>
        <time>2019-09-22T14:57:19.001Z</time>
      </trkpt>
      <trkpt lat="48.79722" lon="5.54424">
        <ele>230.518</ele>
        <time>2019-09-22T14:57:49.001Z</time>
      </trkpt>
      <trkpt lat="48.79635" lon="5.54361">
        <ele>236.796</ele>
        <time>2019-09-22T14:58:19.001Z</time>
      </trkpt>
      <trkpt lat="48.79577" lon="5.54321">
        <ele>239.384</ele>
        <time>2019-09-22T14:59:04.001Z</time>
      </trkpt>
      <trkpt lat="48.79497" lon="5.54525">
        <ele>228.466</ele>
        <time>2019-09-22T14:59:34.001Z</time>
      </trkpt>
      <trkpt lat="48.79429" lon="5.54742">
        <ele>226.455</ele>
        <time>2019-09-22T15:00:04.001Z</time>
      </trkpt>
      <trkpt lat="48.79374" lon="5.54956">
        <ele>229.431</ele>
        <time>2019-09-22T15:00:34.001Z</time>
      </trkpt>
      <trkpt lat="48.79314" lon="5.55179">
        <ele>228.968</ele>
        <time>2019-09-22T15:01:04.001Z</time>
      </trkpt>
      <trkpt lat="48.79249" lon="5.55422">
        <ele>226.179</ele>
        <time>2019-09-22T15:01:34.001Z</time>
      </trkpt>
      <trkpt lat="48.79184" lon="5.5565">
        <ele>227.549</ele>
        <time>2019-09-22T15:02:04.001Z</time>
      </trkpt>
      <trkpt lat="48.79112" lon="5.55856">
        <ele>228.359</ele>
        <time>2019-09-22T15:02:34.001Z</time>
      </trkpt>
      <trkpt lat="48.79005" lon="5.56057">
        <ele>229.968</ele>
        <time>2019-09-22T15:03:04.001Z</time>
      </trkpt>
      <trkpt lat="48.78897" lon="5.56227">
        <ele>230.034</ele>
        <time>2019-09-22T15:03:34.001Z</time>
      </trkpt>
      <trkpt lat="48.78784" lon="5.56413">
        <ele>231.351</ele>
        <time>2019-09-22T15:04:04.001Z</time>
      </trkpt>
      <trkpt lat="48.78666" lon="5.56591">
        <ele>231.722</ele>
        <time>2019-09-22T15:04:34.001Z</time>
      </trkpt>
      <trkpt lat="48.7851" lon="5.56662">
        <ele>230.775</ele>
        <time>2019-09-22T15:05:04.001Z</time>
      </trkpt>
      <trkpt lat="48.7835" lon="5.56682">
        <ele>231.74</ele>
        <time>2019-09-22T15:05:34.001Z</time>
      </trkpt>
      <trkpt lat="48.78194" lon="5.56687">
        <ele>238.784</ele>
        <time>2019-09-22T15:06:04.001Z</time>
      </trkpt>
      <trkpt lat="48.78036" lon="5.56716">
        <ele>237.517</ele>
        <time>2019-09-22T15:06:34.001Z</time>
      </trkpt>
      <trkpt lat="48.77881" lon="5.56773">
        <ele>236.738</ele>
        <time>2019-09-22T15:07:04.001Z</time>
      </trkpt>
      <trkpt lat="48.77733" lon="5.56863">
        <ele>231.877</ele>
        <time>2019-09-22T15:07:34.001Z</time>
      </trkpt>
      <trkpt lat="48.7759" lon="5.5697">
        <ele>228.16</ele>
        <time>2019-09-22T15:08:04.001Z</time>
      </trkpt>
      <trkpt lat="48.77451" lon="5.57109">
        <ele>229.297</ele>
        <time>2019-09-22T15:08:34.001Z</time>
      </trkpt>
      <trkpt lat="48.77328" lon="5.57268">
        <ele>230.49</ele>
        <time>2019-09-22T15:09:04.001Z</time>
      </trkpt>
      <trkpt lat="48.77215" lon="5.57445">
        <ele>229.051</ele>
        <time>2019-09-22T15:09:34.001Z</time>
      </trkpt>
      <trkpt lat="48.77143" lon="5.57648">
        <ele>230.991</ele>
        <time>2019-09-22T15:10:04.001Z</time>
      </trkpt>
      <trkpt lat="48.77083" lon="5.57893">
        <ele>231.623</ele>
        <time>2019-09-22T15:10:34.001Z</time>
      </trkpt>
      <trkpt lat="48.77029" lon="5.5813">
        <ele>241.35</ele>
        <time>2019-09-22T15:11:04.001Z</time>
      </trkpt>
      <trkpt lat="48.76985" lon="5.58329">
        <ele>233.984</ele>
        <time>2019-09-22T15:11:34.001Z</time>
      </trkpt>
      <trkpt lat="48.76951" lon="5.58516">
        <ele>232.997</ele>
        <time>2019-09-22T15:12:04.001Z</time>
      </trkpt>
      <trkpt lat="48.76893" lon="5.58756">
        <ele>233.868</ele>
        <time>2019-09-22T15:12:34.001Z</time>
      </trkpt>
      <trkpt lat="48.76833" lon="5.59005">
        <ele>232.872</ele>
        <time>2019-09-22T15:13:04.001Z</time>
      </trkpt>
      <trkpt lat="48.76737" lon="5.59257">
        <ele>235.878</ele>
        <time>2019-09-22T15:13:34.001Z</time>
      </trkpt>
      <trkpt lat="48.7661" lon="5.59471">
        <ele>236.571</ele>
        <time>2019-09-22T15:14:04.001Z</time>
      </trkpt>
      <trkpt lat="48.76467" lon="5.59627">
        <ele>232.405</ele>
        <time>2019-09-22T15:14:34.001Z</time>
      </trkpt>
      <trkpt lat="48.76336" lon="5.59769">
        <ele>229.652</ele>
        <time>2019-09-22T15:15:04.001Z</time>
      </trkpt>
      <trkpt lat="48.76212" lon="5.59926">
        <ele>233.254</ele>
        <time>2019-09-22T15:15:34.001Z</time>
      </trkpt>
      <trkpt lat="48.76111" lon="5.60135">
        <ele>242.788</ele>
        <time>2019-09-22T15:16:04.001Z</time>
      </trkpt>
      <trkpt lat="48.76009" lon="5.60325">
        <ele>245.595</ele>
        <time>2019-09-22T15:16:34.001Z</time>
      </trkpt>
      <trkpt lat="48.75912" lon="5.60509">
        <ele>238.711</ele>
        <time>2019-09-22T15:17:04.001Z</time>
      </trkpt>
      <trkpt lat="48.75818" lon="5.60698">
        <ele>238.975</ele>
        <time>2019-09-22T15:17:34.001Z</time>
      </trkpt>
      <trkpt lat="48.75729" lon="5.60903">
        <ele>237.291</ele>
        <time>2019-09-22T15:18:04.001Z</time>
      </trkpt>
      <trkpt lat="48.75647" lon="5.6111">
        <ele>236.596</ele>
        <time>2019-09-22T15:18:34.001Z</time>
      </trkpt>
      <trkpt lat="48.7557" lon="5.61305">
        <ele>236.589</ele>
        <time>2019-09-22T15:19:04.001Z</time>
      </trkpt>
      <trkpt lat="48.75486" lon="5.61513">
        <ele>236.799</ele>
        <time>2019-09-22T15:19:34.001Z</time>
      </trkpt>
      <trkpt lat="48.75407" lon="5.61718">
        <ele>234.456</ele>
        <time>2019-09-22T15:20:04.001Z</time>
      </trkpt>
      <trkpt lat="48.75316" lon="5.6193">
        <ele>232.412</ele>
        <time>2019-09-22T15:20:34.001Z</time>
      </trkpt>
      <trkpt lat="48.75225" lon="5.62097">
        <ele>238.746</ele>
        <time>2019-09-22T15:21:04.001Z</time>
      </trkpt>
      <trkpt lat="48.75153" lon="5.62223">
        <ele>244.017</ele>
        <time>2019-09-22T15:21:34.001Z</time>
      </trkpt>
      <trkpt lat="48.75075" lon="5.62346">
        <ele>251.783</ele>
        <time>2019-09-22T15:22:04.001Z</time>
      </trkpt>
      <trkpt lat="48.74967" lon="5.62442">
        <ele>252.93</ele>
        <time>2019-09-22T15:22:34.001Z</time>
      </trkpt>
      <trkpt lat="48.74958" lon="5.62459">
        <ele>253.553</ele>
        <time>2019-09-22T15:25:55.001Z</time>
      </trkpt>
    </trkseg>
  </trk>
</gpx>